Observation data for Throckmorton on 07/20/2019      Previous  Date       Current Mesonet Observations  Soil Data  Daily Summary Page  Observations in Plain Language
KTH1 200500Z 16011KT 28/20 A2989 RMK A01 T02810198  RH  061%=      5-min Rain = 0
KTH1 200501Z 16011KT 28/20 A2989 RMK A01 T02810198  RH  061%=      5-min Rain = 0
KTH1 200502Z 16009G14KT 28/20 A2989 RMK A01 T02810198  RH  061%=      5-min Rain = 0
KTH1 200503Z 16010KT 28/20 A299 RMK A01 T02810198  RH  061%=      5-min Rain = 0
KTH1 200504Z 16011G17KT 28/20 A2989 RMK A01 T02810198  RH  061%=      5-min Rain = 0
KTH1 200505Z 16009KT 28/20 A299 RMK A01 T02810198  RH  060%=      5-min Rain = 0
KTH1 200506Z 17012KT 28/20 A299 RMK A01 T02810197  RH  061%=      5-min Rain = 0
KTH1 200507Z 15011KT 28/20 A299 RMK A01 T02810198  RH  061%=      5-min Rain = 0
KTH1 200508Z 16011KT 28/20 A299 RMK A01 T02810198  RH  061%=      5-min Rain = 0
KTH1 200509Z 16010KT 28/20 A299 RMK A01 T02810198  RH  061%=      5-min Rain = 0
KTH1 200510Z 16010G16KT 28/20 A299 RMK A01 T02810198  RH  061%=      5-min Rain = 0
KTH1 200511Z 16010G16KT 28/20 A299 RMK A01 T02800197  RH  061%=      5-min Rain = 0
KTH1 200512Z 16010KT 28/20 A299 RMK A01 T02800197  RH  061%=      5-min Rain = 0
KTH1 200513Z 16011G17KT 28/20 A299 RMK A01 T02800197  RH  061%=      5-min Rain = 0
KTH1 200514Z 15010KT 28/20 A299 RMK A01 T02800198  RH  061%=      5-min Rain = 0
KTH1 200515Z 16012KT 28/20 A299 RMK A01 T02800198  RH  061%=      5-min Rain = 0
KTH1 200516Z 16012KT 28/20 A299 RMK A01 T02800197  RH  061%=      5-min Rain = 0
KTH1 200517Z 16010KT 28/20 A299 RMK A01 T02800198  RH  061%=      5-min Rain = 0
KTH1 200518Z 16008G14KT 28/20 A299 RMK A01 T02790197  RH  061%=      5-min Rain = 0
KTH1 200519Z 16009KT 28/20 A299 RMK A01 T02790197  RH  061%=      5-min Rain = 0
KTH1 200520Z 16008KT 28/20 A299 RMK A01 T02780197  RH  061%=      5-min Rain = 0
KTH1 200521Z 16007KT 28/20 A299 RMK A01 T02780197  RH  062%=      5-min Rain = 0
KTH1 200522Z 17008KT 28/20 A299 RMK A01 T02770197  RH  062%=      5-min Rain = 0
KTH1 200523Z 16009G14KT 28/20 A299 RMK A01 T02770197  RH  062%=      5-min Rain = 0
KTH1 200524Z 16010KT 28/20 A299 RMK A01 T02770197  RH  062%=      5-min Rain = 0
KTH1 200525Z 16008G13KT 28/20 A299 RMK A01 T02770197  RH  062%=      5-min Rain = 0
KTH1 200526Z 16010KT 28/20 A299 RMK A01 T02770197  RH  062%=      5-min Rain = 0
KTH1 200527Z 15008KT 28/20 A299 RMK A01 T02770197  RH  062%=      5-min Rain = 0
KTH1 200528Z 16010KT 28/20 A299 RMK A01 T02770197  RH  062%=      5-min Rain = 0
KTH1 200529Z 16010G17KT 28/20 A299 RMK A01 T02770197  RH  062%=      5-min Rain = 0
KTH1 200530Z 16011G16KT 28/20 A299 RMK A01 T02760196  RH  062%=      5-min Rain = 0
KTH1 200531Z 16009KT 28/20 A299 RMK A01 T02760196  RH  062%=      5-min Rain = 0
KTH1 200532Z 16010KT 28/20 A299 RMK A01 T02770197  RH  062%=      5-min Rain = 0
KTH1 200533Z 16008G13KT 28/20 A299 RMK A01 T02760196  RH  062%=      5-min Rain = 0
KTH1 200534Z 15009KT 28/20 A299 RMK A01 T02760197  RH  062%=      5-min Rain = 0
KTH1 200535Z 16009KT 28/20 A299 RMK A01 T02760197  RH  062%=      5-min Rain = 0
KTH1 200536Z 16011G18KT 28/20 A299 RMK A01 T02750196  RH  062%=      5-min Rain = 0
KTH1 200537Z 16010KT 28/20 A299 RMK A01 T02750196  RH  062%=      5-min Rain = 0
KTH1 200538Z 16009KT 28/20 A299 RMK A01 T02750195  RH  062%=      5-min Rain = 0
KTH1 200539Z 16010KT 28/20 A299 RMK A01 T02760196  RH  062%=      5-min Rain = 0
KTH1 200540Z 16009KT 28/20 A2989 RMK A01 T02760196  RH  062%=      5-min Rain = 0
KTH1 200541Z 16010KT 28/20 A2989 RMK A01 T02760196  RH  062%=      5-min Rain = 0
KTH1 200542Z 16010KT 28/20 A2989 RMK A01 T02760196  RH  062%=      5-min Rain = 0
KTH1 200543Z 16010G17KT 28/20 A2989 RMK A01 T02760196  RH  062%=      5-min Rain = 0
KTH1 200544Z 16009KT 28/20 A2989 RMK A01 T02750196  RH  062%=      5-min Rain = 0
KTH1 200545Z 16010KT 28/20 A2989 RMK A01 T02750196  RH  062%=      5-min Rain = 0
KTH1 200546Z 16009KT 28/20 A2989 RMK A01 T02750196  RH  062%=      5-min Rain = 0
KTH1 200547Z 15009KT 28/20 A2989 RMK A01 T02750196  RH  062%=      5-min Rain = 0
KTH1 200548Z 16010KT 28/20 A2989 RMK A01 T02750196  RH  062%=      5-min Rain = 0
KTH1 200549Z 16009KT 28/20 A2989 RMK A01 T02750195  RH  062%=      5-min Rain = 0
KTH1 200550Z 17009KT 28/20 A2989 RMK A01 T02750196  RH  062%=      5-min Rain = 0
KTH1 200551Z 16011G16KT 28/20 A2989 RMK A01 T02750196  RH  062%=      5-min Rain = 0
KTH1 200552Z 17008KT 27/20 A2989 RMK A01 T02740195  RH  062%=      5-min Rain = 0
KTH1 200553Z 16007G12KT 27/20 A2989 RMK A01 T02740195  RH  062%=      5-min Rain = 0
KTH1 200554Z 16010G15KT 27/20 A2989 RMK A01 T02740195  RH  062%=      5-min Rain = 0
KTH1 200555Z 17010KT 27/20 A2989 RMK A01 T02740196  RH  062%=      5-min Rain = 0
KTH1 200556Z 16010G16KT 27/20 A2989 RMK A01 T02740195  RH  062%=      5-min Rain = 0
KTH1 200557Z 16009G15KT 27/20 A2989 RMK A01 T02740195  RH  062%=      5-min Rain = 0
KTH1 200558Z 17008G15KT 27/20 A2989 RMK A01 T02740195  RH  062%=      5-min Rain = 0
KTH1 200559Z 16009KT 27/20 A2989 RMK A01 T02740195  RH  062%=      5-min Rain = 0
KTH1 200600Z 17010G16KT 27/19 A2989 RMK A01 T02740194  RH  062%=      5-min Rain = 0
KTH1 200601Z 17009KT 27/20 A2989 RMK A01 T02740195  RH  062%=      5-min Rain = 0
KTH1 200602Z 16008KT 27/19 A2989 RMK A01 T02740194  RH  062%=      5-min Rain = 0
KTH1 200603Z 16009KT 27/19 A2989 RMK A01 T02740194  RH  062%=      5-min Rain = 0
KTH1 200604Z 16010KT 27/19 A2989 RMK A01 T02740194  RH  062%=      5-min Rain = 0
KTH1 200605Z 17008KT 27/19 A2989 RMK A01 T02740194  RH  062%=      5-min Rain = 0
KTH1 200606Z 17008KT 27/20 A2989 RMK A01 T02740195  RH  062%=      5-min Rain = 0
KTH1 200607Z 17010G15KT 27/19 A2989 RMK A01 T02740194  RH  062%=      5-min Rain = 0
KTH1 200608Z 16009KT 27/19 A2989 RMK A01 T02740194  RH  062%=      5-min Rain = 0
KTH1 200609Z 16011KT 27/19 A2989 RMK A01 T02740194  RH  061%=      5-min Rain = 0
KTH1 200610Z 16010KT 28/19 A2989 RMK A01 T02750194  RH  061%=      5-min Rain = 0
KTH1 200611Z 16007KT 28/19 A2989 RMK A01 T02750194  RH  061%=      5-min Rain = 0
KTH1 200612Z 16007KT 27/19 A2989 RMK A01 T02740194  RH  061%=      5-min Rain = 0
KTH1 200613Z 17008KT 27/19 A2989 RMK A01 T02740194  RH  062%=      5-min Rain = 0
KTH1 200614Z 17009KT 27/19 A2989 RMK A01 T02740194  RH  062%=      5-min Rain = 0
KTH1 200615Z 16009KT 27/19 A2989 RMK A01 T02740194  RH  062%=      5-min Rain = 0
KTH1 200616Z 16009KT 27/19 A2989 RMK A01 T02730194  RH  062%=      5-min Rain = 0
KTH1 200617Z 16008KT 27/19 A2989 RMK A01 T02730194  RH  062%=      5-min Rain = 0
KTH1 200618Z 16008KT 27/19 A2989 RMK A01 T02730193  RH  062%=      5-min Rain = 0
KTH1 200619Z 17008KT 27/19 A2989 RMK A01 T02730194  RH  062%=      5-min Rain = 0
KTH1 200620Z 16010KT 27/19 A2989 RMK A01 T02730194  RH  062%=      5-min Rain = 0
KTH1 200621Z 17008KT 27/19 A2989 RMK A01 T02730194  RH  062%=      5-min Rain = 0
KTH1 200622Z 16008KT 27/19 A2989 RMK A01 T02730193  RH  062%=      5-min Rain = 0
KTH1 200623Z 16007KT 27/19 A2989 RMK A01 T02730194  RH  062%=      5-min Rain = 0
KTH1 200624Z 16008G13KT 27/19 A2989 RMK A01 T02720193  RH  062%=      5-min Rain = 0
KTH1 200625Z 17007KT 27/19 A2989 RMK A01 T02720193  RH  062%=      5-min Rain = 0
KTH1 200626Z 17008KT 27/19 A2989 RMK A01 T02720193  RH  062%=      5-min Rain = 0
KTH1 200627Z 17008KT 27/19 A2989 RMK A01 T02710193  RH  062%=      5-min Rain = 0
KTH1 200628Z 17007KT 27/19 A2989 RMK A01 T02710193  RH  062%=      5-min Rain = 0
KTH1 200629Z 17007KT 27/19 A2989 RMK A01 T02710193  RH  062%=      5-min Rain = 0
KTH1 200630Z 16008G13KT 27/19 A2989 RMK A01 T02710193  RH  062%=      5-min Rain = 0
KTH1 200631Z 16009KT 27/19 A2989 RMK A01 T02710193  RH  062%=      5-min Rain = 0
KTH1 200632Z 16006KT 27/19 A2989 RMK A01 T02710193  RH  062%=      5-min Rain = 0
KTH1 200633Z 17007KT 27/19 A2989 RMK A01 T02710193  RH  062%=      5-min Rain = 0
KTH1 200634Z 17008KT 27/19 A2989 RMK A01 T02710193  RH  062%=      5-min Rain = 0
KTH1 200635Z 16009G14KT 27/19 A2989 RMK A01 T02700192  RH  062%=      5-min Rain = 0
KTH1 200636Z 16008KT 27/19 A2989 RMK A01 T02700192  RH  062%=      5-min Rain = 0
KTH1 200637Z 16008KT 27/19 A2989 RMK A01 T02710193  RH  062%=      5-min Rain = 0
KTH1 200638Z 17008G13KT 27/19 A2989 RMK A01 T02700192  RH  062%=      5-min Rain = 0
KTH1 200639Z 17007KT 27/19 A2989 RMK A01 T02700192  RH  062%=      5-min Rain = 0
KTH1 200640Z 17008KT 27/19 A2989 RMK A01 T02700192  RH  062%=      5-min Rain = 0
KTH1 200641Z 17009G14KT 27/19 A2989 RMK A01 T02700192  RH  062%=      5-min Rain = 0
KTH1 200642Z 17008KT 27/19 A2989 RMK A01 T02700192  RH  062%=      5-min Rain = 0
KTH1 200643Z 16008KT 27/19 A2989 RMK A01 T02710192  RH  062%=      5-min Rain = 0
KTH1 200644Z 16008KT 27/19 A2989 RMK A01 T02700192  RH  062%=      5-min Rain = 0
KTH1 200645Z 17006G13KT 27/19 A2989 RMK A01 T02700192  RH  062%=      5-min Rain = 0
KTH1 200646Z 17007G12KT 27/19 A2989 RMK A01 T02700192  RH  063%=      5-min Rain = 0
KTH1 200647Z 17009KT 27/19 A2989 RMK A01 T02690192  RH  063%=      5-min Rain = 0
KTH1 200648Z 16009KT 27/19 A2989 RMK A01 T02690192  RH  063%=      5-min Rain = 0
KTH1 200649Z 17007KT 27/19 A2989 RMK A01 T02690192  RH  063%=      5-min Rain = 0
KTH1 200650Z 16007G12KT 27/19 A2989 RMK A01 T02690192  RH  063%=      5-min Rain = 0
KTH1 200651Z 17008KT 27/19 A2989 RMK A01 T02690192  RH  063%=      5-min Rain = 0
KTH1 200652Z 17007KT 27/19 A2989 RMK A01 T02680192  RH  063%=      5-min Rain = 0
KTH1 200653Z 17008KT 27/19 A2989 RMK A01 T02680192  RH  063%=      5-min Rain = 0
KTH1 200654Z 16008KT 27/19 A2989 RMK A01 T02680192  RH  063%=      5-min Rain = 0
KTH1 200655Z 15005KT 27/19 A2989 RMK A01 T02680192  RH  063%=      5-min Rain = 0
KTH1 200656Z 17008KT 27/19 A2989 RMK A01 T02680192  RH  063%=      5-min Rain = 0
KTH1 200657Z 17007KT 27/19 A2989 RMK A01 T02670192  RH  063%=      5-min Rain = 0
KTH1 200658Z 17005KT 27/19 A2989 RMK A01 T02670192  RH  064%=      5-min Rain = 0
KTH1 200659Z 16007KT 27/19 A2989 RMK A01 T02670193  RH  064%=      5-min Rain = 0
KTH1 200700Z 17009KT 27/19 A2989 RMK A01 T02660192  RH  064%=      5-min Rain = 0
KTH1 200701Z 17008KT 27/19 A2989 RMK A01 T02660192  RH  064%=      5-min Rain = 0
KTH1 200702Z 17007KT 27/19 A2989 RMK A01 T02660192  RH  064%=      5-min Rain = 0
KTH1 200703Z 16007KT 27/19 A2989 RMK A01 T02660192  RH  064%=      5-min Rain = 0
KTH1 200704Z 17008KT 27/19 A2989 RMK A01 T02660192  RH  064%=      5-min Rain = 0
KTH1 200705Z 17006KT 27/19 A2989 RMK A01 T02660193  RH  064%=      5-min Rain = 0
KTH1 200706Z 17006KT 27/19 A2989 RMK A01 T02650192  RH  064%=      5-min Rain = 0
KTH1 200707Z 17006KT 27/19 A2989 RMK A01 T02650193  RH  064%=      5-min Rain = 0
KTH1 200708Z 17007KT 27/19 A2989 RMK A01 T02650192  RH  064%=      5-min Rain = 0
KTH1 200709Z 17007KT 27/19 A2989 RMK A01 T02650192  RH  064%=      5-min Rain = 0
KTH1 200710Z 17007KT 27/19 A2989 RMK A01 T02650193  RH  064%=      5-min Rain = 0
KTH1 200711Z 17007KT 27/19 A2989 RMK A01 T02650193  RH  065%=      5-min Rain = 0
KTH1 200712Z 17005KT 26/19 A2989 RMK A01 T02640192  RH  065%=      5-min Rain = 0
KTH1 200713Z 17006KT 26/19 A2989 RMK A01 T02640192  RH  065%=      5-min Rain = 0
KTH1 200714Z 17008G13KT 26/19 A2989 RMK A01 T02640192  RH  065%=      5-min Rain = 0
KTH1 200715Z 17008KT 26/19 A2989 RMK A01 T02630192  RH  065%=      5-min Rain = 0
KTH1 200716Z 17007KT 26/19 A2989 RMK A01 T02630192  RH  065%=      5-min Rain = 0
KTH1 200717Z 17009KT 26/19 A2989 RMK A01 T02640192  RH  065%=      5-min Rain = 0
KTH1 200718Z 17006KT 26/19 A2989 RMK A01 T02630192  RH  065%=      5-min Rain = 0
KTH1 200719Z 17010KT 26/19 A2988 RMK A01 T02630192  RH  065%=      5-min Rain = 0
KTH1 200720Z 17008KT 26/19 A2988 RMK A01 T02640192  RH  065%=      5-min Rain = 0
KTH1 200721Z 17010KT 26/19 A2989 RMK A01 T02630192  RH  065%=      5-min Rain = 0
KTH1 200722Z 17007KT 26/19 A2988 RMK A01 T02640192  RH  065%=      5-min Rain = 0
KTH1 200723Z 17009G15KT 26/19 A2988 RMK A01 T02630192  RH  065%=      5-min Rain = 0
KTH1 200724Z 17009G14KT 26/19 A2988 RMK A01 T02640193  RH  065%=      5-min Rain = 0
KTH1 200725Z 16008KT 26/19 A2988 RMK A01 T02640193  RH  065%=      5-min Rain = 0
KTH1 200726Z 17008G13KT 26/19 A2988 RMK A01 T02640193  RH  065%=      5-min Rain = 0
KTH1 200727Z 18010G17KT 26/19 A2988 RMK A01 T02640193  RH  065%=      5-min Rain = 0
KTH1 200728Z 17010G15KT 26/19 A2988 RMK A01 T02630193  RH  065%=      5-min Rain = 0
KTH1 200729Z 17010G16KT 26/19 A2988 RMK A01 T02640193  RH  065%=      5-min Rain = 0
KTH1 200730Z 17011KT 26/19 A2988 RMK A01 T02640193  RH  065%=      5-min Rain = 0
KTH1 200731Z 17012KT 27/19 A2988 RMK A01 T02650193  RH  065%=      5-min Rain = 0
KTH1 200732Z 17010KT 27/19 A2988 RMK A01 T02660194  RH  065%=      5-min Rain = 0
KTH1 200733Z 16009KT 27/19 A2988 RMK A01 T02660194  RH  065%=      5-min Rain = 0
KTH1 200734Z 17007KT 27/19 A2988 RMK A01 T02660194  RH  064%=      5-min Rain = 0
KTH1 200735Z 17009KT 27/19 A2988 RMK A01 T02660194  RH  064%=      5-min Rain = 0
KTH1 200736Z 17008G13KT 27/19 A2988 RMK A01 T02660194  RH  065%=      5-min Rain = 0
KTH1 200737Z 17009KT 27/19 A2988 RMK A01 T02660194  RH  065%=      5-min Rain = 0
KTH1 200738Z 16008KT 27/20 A2988 RMK A01 T02660195  RH  065%=      5-min Rain = 0
KTH1 200739Z 18011KT 27/19 A2988 RMK A01 T02650194  RH  065%=      5-min Rain = 0
KTH1 200740Z 17008KT 27/19 A2988 RMK A01 T02650194  RH  065%=      5-min Rain = 0
KTH1 200741Z 17008G13KT 27/19 A2988 RMK A01 T02650194  RH  065%=      5-min Rain = 0
KTH1 200742Z 18011KT 27/19 A2988 RMK A01 T02650194  RH  065%=      5-min Rain = 0
KTH1 200743Z 17009KT 27/20 A2988 RMK A01 T02650195  RH  065%=      5-min Rain = 0
KTH1 200744Z 18010KT 27/20 A2988 RMK A01 T02660195  RH  065%=      5-min Rain = 0
KTH1 200745Z 18010KT 27/20 A2988 RMK A01 T02660195  RH  065%=      5-min Rain = 0
KTH1 200746Z 18007KT 27/20 A2988 RMK A01 T02660195  RH  065%=      5-min Rain = 0
KTH1 200747Z 18009KT 27/20 A2988 RMK A01 T02660195  RH  065%=      5-min Rain = 0
KTH1 200748Z 17009KT 27/20 A2988 RMK A01 T02660195  RH  065%=      5-min Rain = 0
KTH1 200749Z 17008KT 27/20 A2988 RMK A01 T02650195  RH  065%=      5-min Rain = 0
KTH1 200750Z 18009KT 27/20 A2988 RMK A01 T02650195  RH  065%=      5-min Rain = 0
KTH1 200751Z 17012G17KT 27/20 A2988 RMK A01 T02650195  RH  065%=      5-min Rain = 0
KTH1 200752Z 18009KT 27/20 A2988 RMK A01 T02650195  RH  065%=      5-min Rain = 0
KTH1 200753Z 18008KT 27/20 A2988 RMK A01 T02650195  RH  066%=      5-min Rain = 0
KTH1 200754Z 17010KT 27/20 A2988 RMK A01 T02650196  RH  066%=      5-min Rain = 0
KTH1 200755Z 18009KT 27/20 A2988 RMK A01 T02650195  RH  066%=      5-min Rain = 0
KTH1 200756Z 18008KT 27/20 A2988 RMK A01 T02650195  RH  066%=      5-min Rain = 0
KTH1 200757Z 17010KT 27/20 A2988 RMK A01 T02650196  RH  066%=      5-min Rain = 0
KTH1 200758Z 17009KT 27/20 A2988 RMK A01 T02650196  RH  066%=      5-min Rain = 0
KTH1 200759Z 18007KT 27/20 A2988 RMK A01 T02650196  RH  066%=      5-min Rain = 0
KTH1 200800Z 18012KT 27/20 A2988 RMK A01 T02650196  RH  066%=      5-min Rain = 0
KTH1 200801Z 18006KT 26/20 A2988 RMK A01 T02640196  RH  066%=      5-min Rain = 0
KTH1 200802Z 18009KT 26/20 A2988 RMK A01 T02640196  RH  066%=      5-min Rain = 0
KTH1 200803Z 18009KT 27/20 A2988 RMK A01 T02650196  RH  066%=      5-min Rain = 0
KTH1 200804Z 18011KT 26/20 A2988 RMK A01 T02640196  RH  066%=      5-min Rain = 0
KTH1 200805Z 18010KT 26/20 A2988 RMK A01 T02640196  RH  066%=      5-min Rain = 0
KTH1 200806Z 18010KT 27/20 A2989 RMK A01 T02650196  RH  066%=      5-min Rain = 0
KTH1 200807Z 18008KT 26/20 A2988 RMK A01 T02640196  RH  066%=      5-min Rain = 0
KTH1 200808Z 18008KT 26/20 A2989 RMK A01 T02640196  RH  066%=      5-min Rain = 0
KTH1 200809Z 18009G14KT 26/20 A2988 RMK A01 T02640196  RH  066%=      5-min Rain = 0
KTH1 200810Z 19008KT 26/20 A2988 RMK A01 T02630196  RH  066%=      5-min Rain = 0
KTH1 200811Z 19009KT 26/20 A2988 RMK A01 T02640196  RH  067%=      5-min Rain = 0
KTH1 200812Z 19009KT 26/20 A2988 RMK A01 T02640197  RH  067%=      5-min Rain = 0
KTH1 200813Z 18011KT 26/20 A2988 RMK A01 T02630197  RH  067%=      5-min Rain = 0
KTH1 200814Z 18011KT 26/20 A2988 RMK A01 T02630197  RH  067%=      5-min Rain = 0
KTH1 200815Z 19008G14KT 26/20 A2988 RMK A01 T02640197  RH  067%=      5-min Rain = 0
KTH1 200816Z 19009G14KT 26/20 A2988 RMK A01 T02630196  RH  067%=      5-min Rain = 0
KTH1 200817Z 19008KT 26/20 A2988 RMK A01 T02630197  RH  067%=      5-min Rain = 0
KTH1 200818Z 19007KT 26/20 A2988 RMK A01 T02630197  RH  067%=      5-min Rain = 0
KTH1 200819Z 18006KT 26/20 A2988 RMK A01 T02620197  RH  067%=      5-min Rain = 0
KTH1 200820Z 18008KT 26/20 A2988 RMK A01 T02610197  RH  068%=      5-min Rain = 0
KTH1 200821Z 18007KT 26/20 A2988 RMK A01 T02610197  RH  068%=      5-min Rain = 0
KTH1 200822Z 18007KT 26/20 A2988 RMK A01 T02600197  RH  068%=      5-min Rain = 0
KTH1 200823Z 18009KT 26/20 A2988 RMK A01 T02600197  RH  068%=      5-min Rain = 0
KTH1 200824Z 18009G14KT 26/20 A2988 RMK A01 T02600197  RH  068%=      5-min Rain = 0
KTH1 200825Z 18008G13KT 26/20 A2988 RMK A01 T02600197  RH  068%=      5-min Rain = 0
KTH1 200826Z 18009G15KT 26/20 A2988 RMK A01 T02600197  RH  068%=      5-min Rain = 0
KTH1 200827Z 18008KT 26/20 A2988 RMK A01 T02600197  RH  068%=      5-min Rain = 0
KTH1 200828Z 17008KT 26/20 A2988 RMK A01 T02590197  RH  069%=      5-min Rain = 0
KTH1 200829Z 18011KT 26/20 A2988 RMK A01 T02590197  RH  069%=      5-min Rain = 0
KTH1 200830Z 17008KT 26/20 A2988 RMK A01 T02590197  RH  069%=      5-min Rain = 0
KTH1 200831Z 18008G13KT 26/20 A2988 RMK A01 T02590197  RH  069%=      5-min Rain = 0
KTH1 200832Z 18009KT 26/20 A2988 RMK A01 T02590197  RH  069%=      5-min Rain = 0
KTH1 200833Z 18009KT 26/20 A2988 RMK A01 T02580197  RH  069%=      5-min Rain = 0
KTH1 200834Z 18007KT 26/20 A2988 RMK A01 T02580197  RH  069%=      5-min Rain = 0
KTH1 200835Z 18008KT 26/20 A2988 RMK A01 T02580197  RH  069%=      5-min Rain = 0
KTH1 200836Z 17009KT 26/20 A2988 RMK A01 T02570197  RH  069%=      5-min Rain = 0
KTH1 200837Z 18009KT 26/20 A2988 RMK A01 T02580198  RH  069%=      5-min Rain = 0
KTH1 200838Z 18008KT 26/20 A2988 RMK A01 T02570198  RH  070%=      5-min Rain = 0
KTH1 200839Z 18006KT 26/20 A2988 RMK A01 T02570198  RH  070%=      5-min Rain = 0
KTH1 200840Z 17008KT 26/20 A2988 RMK A01 T02570198  RH  070%=      5-min Rain = 0
KTH1 200841Z 18009KT 26/20 A2988 RMK A01 T02570198  RH  070%=      5-min Rain = 0
KTH1 200842Z 18008KT 26/20 A2988 RMK A01 T02570198  RH  070%=      5-min Rain = 0
KTH1 200843Z 18008KT 26/20 A2988 RMK A01 T02560198  RH  070%=      5-min Rain = 0
KTH1 200844Z 18008KT 26/20 A2988 RMK A01 T02560198  RH  070%=      5-min Rain = 0
KTH1 200845Z 18008KT 26/20 A2988 RMK A01 T02560198  RH  070%=      5-min Rain = 0
KTH1 200846Z 18007KT 26/20 A2988 RMK A01 T02560198  RH  070%=      5-min Rain = 0
KTH1 200847Z 18007KT 26/20 A2988 RMK A01 T02550198  RH  071%=      5-min Rain = 0
KTH1 200848Z 19007KT 26/20 A2988 RMK A01 T02550198  RH  071%=      5-min Rain = 0
KTH1 200849Z 18007KT 25/20 A2988 RMK A01 T02540198  RH  071%=      5-min Rain = 0
KTH1 200850Z 19007KT 25/20 A2988 RMK A01 T02540198  RH  071%=      5-min Rain = 0
KTH1 200851Z 18007KT 25/20 A2988 RMK A01 T02540198  RH  071%=      5-min Rain = 0
KTH1 200852Z 19007KT 25/20 A2988 RMK A01 T02540198  RH  071%=      5-min Rain = 0
KTH1 200853Z 18005KT 25/20 A2988 RMK A01 T02530198  RH  071%=      5-min Rain = 0
KTH1 200854Z 18008KT 25/20 A2988 RMK A01 T02530198  RH  072%=      5-min Rain = 0
KTH1 200855Z 19007KT 25/20 A2988 RMK A01 T02530198  RH  072%=      5-min Rain = 0
KTH1 200856Z 18009KT 25/20 A2988 RMK A01 T02530198  RH  072%=      5-min Rain = 0
KTH1 200857Z 18008KT 25/20 A2988 RMK A01 T02530199  RH  072%=      5-min Rain = 0
KTH1 200858Z 18008KT 25/20 A2988 RMK A01 T02530199  RH  072%=      5-min Rain = 0
KTH1 200859Z 18007KT 25/20 A2988 RMK A01 T02530199  RH  072%=      5-min Rain = 0
KTH1 200900Z 18007KT 25/20 A2988 RMK A01 T02530199  RH  072%=      5-min Rain = 0
KTH1 200901Z 18006G11KT 25/20 A2988 RMK A01 T02530199  RH  072%=      5-min Rain = 0
KTH1 200902Z 19007KT 25/20 A2988 RMK A01 T02530199  RH  072%=      5-min Rain = 0
KTH1 200903Z 18006G11KT 25/20 A2988 RMK A01 T02530199  RH  072%=      5-min Rain = 0
KTH1 200904Z 18006KT 25/20 A2988 RMK A01 T02520199  RH  072%=      5-min Rain = 0
KTH1 200905Z 18008KT 25/20 A2988 RMK A01 T02520199  RH  072%=      5-min Rain = 0
KTH1 200906Z 18008KT 25/20 A2988 RMK A01 T02520199  RH  072%=      5-min Rain = 0
KTH1 200907Z 17008KT 25/20 A2988 RMK A01 T02520199  RH  072%=      5-min Rain = 0
KTH1 200908Z 18006KT 25/20 A2988 RMK A01 T02520199  RH  072%=      5-min Rain = 0
KTH1 200909Z 18008KT 25/20 A2989 RMK A01 T02530200  RH  072%=      5-min Rain = 0
KTH1 200910Z 18006KT 25/20 A2989 RMK A01 T02520199  RH  072%=      5-min Rain = 0
KTH1 200911Z 18007KT 25/20 A2989 RMK A01 T02530200  RH  072%=      5-min Rain = 0
KTH1 200912Z 19007KT 25/20 A2989 RMK A01 T02530200  RH  072%=      5-min Rain = 0
KTH1 200913Z 18008KT 25/20 A2989 RMK A01 T02530200  RH  073%=      5-min Rain = 0
KTH1 200914Z 18007G12KT 25/20 A2989 RMK A01 T02530200  RH  073%=      5-min Rain = 0
KTH1 200915Z 17007KT 25/20 A2989 RMK A01 T02530200  RH  073%=      5-min Rain = 0
KTH1 200916Z 18008KT 25/20 A2989 RMK A01 T02530200  RH  073%=      5-min Rain = 0
KTH1 200917Z 18007G12KT 25/20 A2989 RMK A01 T02530201  RH  073%=      5-min Rain = 0
KTH1 200918Z 18008KT 25/20 A2989 RMK A01 T02520200  RH  073%=      5-min Rain = 0
KTH1 200919Z 18007KT 25/20 A2989 RMK A01 T02530201  RH  073%=      5-min Rain = 0
KTH1 200920Z 18007KT 25/20 A2989 RMK A01 T02530201  RH  073%=      5-min Rain = 0
KTH1 200921Z 17010KT 25/20 A2989 RMK A01 T02520201  RH  073%=      5-min Rain = 0
KTH1 200922Z 18007KT 25/20 A2989 RMK A01 T02530201  RH  073%=      5-min Rain = 0
KTH1 200923Z 18006KT 25/20 A2989 RMK A01 T02520200  RH  073%=      5-min Rain = 0
KTH1 200924Z 18006G11KT 25/20 A2989 RMK A01 T02530201  RH  073%=      5-min Rain = 0
KTH1 200925Z 18008KT 25/20 A2989 RMK A01 T02520201  RH  073%=      5-min Rain = 0
KTH1 200926Z 18006KT 25/20 A2989 RMK A01 T02520201  RH  073%=      5-min Rain = 0
KTH1 200927Z 18008KT 25/20 A2989 RMK A01 T02510201  RH  074%=      5-min Rain = 0
KTH1 200928Z 18007KT 25/20 A2989 RMK A01 T02510201  RH  074%=      5-min Rain = 0
KTH1 200929Z 18009KT 25/20 A2989 RMK A01 T02510201  RH  074%=      5-min Rain = 0
KTH1 200930Z 18007KT 25/20 A2989 RMK A01 T02520201  RH  074%=      5-min Rain = 0
KTH1 200931Z 18008KT 25/20 A2989 RMK A01 T02520201  RH  074%=      5-min Rain = 0
KTH1 200932Z 18007KT 25/20 A2989 RMK A01 T02520202  RH  074%=      5-min Rain = 0
KTH1 200933Z 18007KT 25/20 A2989 RMK A01 T02520202  RH  074%=      5-min Rain = 0
KTH1 200934Z 18008KT 25/20 A2989 RMK A01 T02520202  RH  074%=      5-min Rain = 0
KTH1 200935Z 18007KT 25/20 A2989 RMK A01 T02520202  RH  074%=      5-min Rain = 0
KTH1 200936Z 17008KT 25/20 A2989 RMK A01 T02520202  RH  074%=      5-min Rain = 0
KTH1 200937Z 18009KT 25/20 A2989 RMK A01 T02520202  RH  074%=      5-min Rain = 0
KTH1 200938Z 18007KT 25/20 A2989 RMK A01 T02520202  RH  074%=      5-min Rain = 0
KTH1 200939Z 17008KT 25/20 A2989 RMK A01 T02520202  RH  074%=      5-min Rain = 0
KTH1 200940Z 17006KT 25/20 A2989 RMK A01 T02520203  RH  074%=      5-min Rain = 0
KTH1 200941Z 19009G14KT 25/20 A2989 RMK A01 T02520203  RH  074%=      5-min Rain = 0
KTH1 200942Z 18007KT 25/20 A2989 RMK A01 T02510203  RH  074%=      5-min Rain = 0
KTH1 200943Z 18007G12KT 25/20 A2989 RMK A01 T02520203  RH  074%=      5-min Rain = 0
KTH1 200944Z 18008KT 25/20 A2989 RMK A01 T02520203  RH  074%=      5-min Rain = 0
KTH1 200945Z 18008KT 25/20 A2989 RMK A01 T02510203  RH  074%=      5-min Rain = 0
KTH1 200946Z 18007KT 25/20 A2989 RMK A01 T02520203  RH  074%=      5-min Rain = 0
KTH1 200947Z 18007KT 25/20 A2989 RMK A01 T02510203  RH  074%=      5-min Rain = 0
KTH1 200948Z 18007KT 25/20 A2989 RMK A01 T02520204  RH  075%=      5-min Rain = 0
KTH1 200949Z 18008KT 25/20 A2989 RMK A01 T02520204  RH  075%=      5-min Rain = 0
KTH1 200950Z 18010KT 25/20 A2989 RMK A01 T02520204  RH  075%=      5-min Rain = 0
KTH1 200951Z 18007KT 25/20 A2989 RMK A01 T02520204  RH  075%=      5-min Rain = 0
KTH1 200952Z 18006KT 25/20 A2989 RMK A01 T02520204  RH  075%=      5-min Rain = 0
KTH1 200953Z 18007KT 25/20 A2989 RMK A01 T02520204  RH  075%=      5-min Rain = 0
KTH1 200954Z 18008KT 25/20 A2989 RMK A01 T02520204  RH  075%=      5-min Rain = 0
KTH1 200955Z 18010KT 25/20 A2989 RMK A01 T02510204  RH  075%=      5-min Rain = 0
KTH1 200956Z 18008KT 25/20 A2989 RMK A01 T02520204  RH  075%=      5-min Rain = 0
KTH1 200957Z 18010KT 25/20 A2989 RMK A01 T02520204  RH  075%=      5-min Rain = 0
KTH1 200958Z 19008KT 25/20 A2989 RMK A01 T02520204  RH  075%=      5-min Rain = 0
KTH1 200959Z 19009G15KT 25/20 A2989 RMK A01 T02520204  RH  075%=      5-min Rain = 0
KTH1 201000Z 19009KT 25/21 A2989 RMK A01 T02530205  RH  075%=      5-min Rain = 0
KTH1 201001Z 18008KT 25/21 A2989 RMK A01 T02530205  RH  075%=      5-min Rain = 0
KTH1 201002Z 18008KT 25/20 A2989 RMK A01 T02520204  RH  075%=      5-min Rain = 0
KTH1 201003Z 18009KT 25/21 A2989 RMK A01 T02530205  RH  075%=      5-min Rain = 0
KTH1 201004Z 18008KT 25/21 A2989 RMK A01 T02530205  RH  075%=      5-min Rain = 0
KTH1 201005Z 18007KT 25/21 A2989 RMK A01 T02530205  RH  075%=      5-min Rain = 0
KTH1 201006Z 18009KT 25/21 A2989 RMK A01 T02530205  RH  075%=      5-min Rain = 0
KTH1 201007Z 19007G12KT 25/21 A2989 RMK A01 T02520205  RH  075%=      5-min Rain = 0
KTH1 201008Z 19010KT 25/21 A2989 RMK A01 T02530205  RH  075%=      5-min Rain = 0
KTH1 201009Z 18007KT 25/21 A2989 RMK A01 T02520205  RH  075%=      5-min Rain = 0
KTH1 201010Z 18010KT 25/21 A2989 RMK A01 T02520205  RH  075%=      5-min Rain = 0
KTH1 201011Z 19007KT 25/21 A2989 RMK A01 T02520205  RH  075%=      5-min Rain = 0
KTH1 201012Z 18007KT 25/21 A2989 RMK A01 T02520205  RH  075%=      5-min Rain = 0
KTH1 201013Z 18007KT 25/21 A2989 RMK A01 T02520205  RH  075%=      5-min Rain = 0
KTH1 201014Z 18006KT 25/21 A2989 RMK A01 T02520205  RH  076%=      5-min Rain = 0
KTH1 201015Z 18007KT 25/21 A2989 RMK A01 T02520206  RH  076%=      5-min Rain = 0
KTH1 201016Z 19010KT 25/21 A2989 RMK A01 T02520206  RH  076%=      5-min Rain = 0
KTH1 201017Z 19009KT 25/21 A2989 RMK A01 T02510206  RH  076%=      5-min Rain = 0
KTH1 201018Z 18008KT 25/21 A2989 RMK A01 T02520206  RH  076%=      5-min Rain = 0
KTH1 201019Z 18007KT 25/21 A2989 RMK A01 T02520206  RH  075%=      5-min Rain = 0
KTH1 201020Z 18008KT 25/21 A2989 RMK A01 T02520206  RH  075%=      5-min Rain = 0
KTH1 201021Z 19007KT 25/21 A2989 RMK A01 T02520206  RH  076%=      5-min Rain = 0
KTH1 201022Z 19007KT 25/21 A2989 RMK A01 T02520206  RH  076%=      5-min Rain = 0
KTH1 201023Z 19008KT 25/21 A2989 RMK A01 T02520206  RH  076%=      5-min Rain = 0
KTH1 201024Z 18005KT 25/21 A2989 RMK A01 T02520206  RH  076%=      5-min Rain = 0
KTH1 201025Z 19007KT 25/21 A2989 RMK A01 T02510206  RH  076%=      5-min Rain = 0
KTH1 201026Z 18007KT 25/21 A2989 RMK A01 T02510206  RH  076%=      5-min Rain = 0
KTH1 201027Z 19006KT 25/21 A2989 RMK A01 T02510207  RH  076%=      5-min Rain = 0
KTH1 201028Z 18007KT 25/21 A2989 RMK A01 T02510206  RH  076%=      5-min Rain = 0
KTH1 201029Z 19006KT 25/21 A2989 RMK A01 T02510206  RH  076%=      5-min Rain = 0
KTH1 201030Z 18007KT 25/21 A2989 RMK A01 T02510207  RH  077%=      5-min Rain = 0
KTH1 201031Z 18007KT 25/21 A2989 RMK A01 T02500206  RH  077%=      5-min Rain = 0
KTH1 201032Z 18007KT 25/21 A2989 RMK A01 T02500207  RH  077%=      5-min Rain = 0
KTH1 201033Z 18006G11KT 25/21 A2989 RMK A01 T02500207  RH  077%=      5-min Rain = 0
KTH1 201034Z 18008KT 25/21 A2989 RMK A01 T02500207  RH  077%=      5-min Rain = 0
KTH1 201035Z 18007KT 25/21 A2989 RMK A01 T02500207  RH  077%=      5-min Rain = 0
KTH1 201036Z 18007KT 25/21 A2989 RMK A01 T02500207  RH  077%=      5-min Rain = 0
KTH1 201037Z 18006KT 25/21 A2989 RMK A01 T02500206  RH  077%=      5-min Rain = 0
KTH1 201038Z 18007KT 25/21 A2989 RMK A01 T02500207  RH  077%=      5-min Rain = 0
KTH1 201039Z 18005KT 25/21 A299 RMK A01 T02500207  RH  077%=      5-min Rain = 0
KTH1 201040Z 18007KT 25/21 A299 RMK A01 T02500206  RH  077%=      5-min Rain = 0
KTH1 201041Z 18007KT 25/21 A299 RMK A01 T02490206  RH  077%=      5-min Rain = 0
KTH1 201042Z 18007KT 25/21 A299 RMK A01 T02490207  RH  077%=      5-min Rain = 0
KTH1 201043Z 18007KT 25/21 A299 RMK A01 T02490207  RH  077%=      5-min Rain = 0
KTH1 201044Z 17006KT 25/21 A299 RMK A01 T02490206  RH  077%=      5-min Rain = 0
KTH1 201045Z 18006KT 25/21 A299 RMK A01 T02480206  RH  077%=      5-min Rain = 0
KTH1 201046Z 18007KT 25/21 A299 RMK A01 T02480206  RH  078%=      5-min Rain = 0
KTH1 201047Z 17008KT 25/21 A299 RMK A01 T02480206  RH  078%=      5-min Rain = 0
KTH1 201048Z 17007KT 25/21 A299 RMK A01 T02480206  RH  078%=      5-min Rain = 0
KTH1 201049Z 17006KT 25/21 A299 RMK A01 T02480206  RH  078%=      5-min Rain = 0
KTH1 201050Z 17007KT 25/21 A299 RMK A01 T02480206  RH  078%=      5-min Rain = 0
KTH1 201051Z 17006KT 25/21 A299 RMK A01 T02480206  RH  077%=      5-min Rain = 0
KTH1 201052Z 17007KT 25/21 A299 RMK A01 T02480207  RH  078%=      5-min Rain = 0
KTH1 201053Z 18006KT 25/21 A299 RMK A01 T02480207  RH  078%=      5-min Rain = 0
KTH1 201054Z 17006KT 25/21 A299 RMK A01 T02480207  RH  078%=      5-min Rain = 0
KTH1 201055Z 17006KT 25/21 A299 RMK A01 T02480207  RH  078%=      5-min Rain = 0
KTH1 201056Z 18006KT 25/21 A299 RMK A01 T02470207  RH  078%=      5-min Rain = 0
KTH1 201057Z 17006KT 25/21 A299 RMK A01 T02470207  RH  078%=      5-min Rain = 0
KTH1 201058Z 18007KT 25/21 A299 RMK A01 T02470207  RH  078%=      5-min Rain = 0
KTH1 201059Z 18007KT 25/21 A299 RMK A01 T02470207  RH  078%=      5-min Rain = 0
KTH1 201100Z 18005G10KT 25/21 A299 RMK A01 T02470207  RH  078%=      5-min Rain = 0
KTH1 201101Z 17006KT 25/21 A299 RMK A01 T02470207  RH  078%=      5-min Rain = 0
KTH1 201102Z 18006KT 25/21 A299 RMK A01 T02470207  RH  078%=      5-min Rain = 0
KTH1 201103Z 18008KT 25/21 A299 RMK A01 T02470207  RH  078%=      5-min Rain = 0
KTH1 201104Z 17006KT 25/21 A299 RMK A01 T02470207  RH  078%=      5-min Rain = 0
KTH1 201105Z 18006KT 25/21 A299 RMK A01 T02470207  RH  078%=      5-min Rain = 0
KTH1 201106Z 18005KT 25/21 A299 RMK A01 T02470207  RH  078%=      5-min Rain = 0
KTH1 201107Z 18007KT 25/21 A299 RMK A01 T02470207  RH  078%=      5-min Rain = 0
KTH1 201108Z 18007KT 25/21 A299 RMK A01 T02470207  RH  078%=      5-min Rain = 0
KTH1 201109Z 19006KT 25/21 A299 RMK A01 T02480208  RH  078%=      5-min Rain = 0
KTH1 201110Z 18007KT 25/21 A299 RMK A01 T02470208  RH  078%=      5-min Rain = 0
KTH1 201111Z 18006KT 25/21 A299 RMK A01 T02470208  RH  079%=      5-min Rain = 0
KTH1 201112Z 18007G12KT 25/21 A299 RMK A01 T02470208  RH  079%=      5-min Rain = 0
KTH1 201113Z 18005KT 25/21 A2991 RMK A01 T02480208  RH  078%=      5-min Rain = 0
KTH1 201114Z 18006KT 25/21 A2991 RMK A01 T02480207  RH  078%=      5-min Rain = 0
KTH1 201115Z 19006KT 25/21 A2991 RMK A01 T02480207  RH  078%=      5-min Rain = 0
KTH1 201116Z 18007KT 25/21 A2991 RMK A01 T02480208  RH  078%=      5-min Rain = 0
KTH1 201117Z 19007KT 25/21 A2991 RMK A01 T02480208  RH  078%=      5-min Rain = 0
KTH1 201118Z 18007KT 25/21 A2991 RMK A01 T02480208  RH  078%=      5-min Rain = 0
KTH1 201119Z 18006KT 25/21 A2991 RMK A01 T02480208  RH  078%=      5-min Rain = 0
KTH1 201120Z 18005KT 25/21 A2991 RMK A01 T02480208  RH  078%=      5-min Rain = 0
KTH1 201121Z 18006KT 25/21 A2991 RMK A01 T02480208  RH  078%=      5-min Rain = 0
KTH1 201122Z 18006KT 25/21 A2991 RMK A01 T02480208  RH  078%=      5-min Rain = 0
KTH1 201123Z 18004KT 25/21 A2991 RMK A01 T02480208  RH  078%=      5-min Rain = 0
KTH1 201124Z 18006KT 25/21 A2991 RMK A01 T02470208  RH  079%=      5-min Rain = 0
KTH1 201125Z 19006KT 25/21 A2991 RMK A01 T02470208  RH  079%=      5-min Rain = 0
KTH1 201126Z 17006KT 25/21 A2991 RMK A01 T02470208  RH  079%=      5-min Rain = 0
KTH1 201127Z 18005KT 25/21 A2991 RMK A01 T02470208  RH  079%=      5-min Rain = 0
KTH1 201128Z 18006KT 25/21 A2991 RMK A01 T02470208  RH  079%=      5-min Rain = 0
KTH1 201129Z 18006KT 25/21 A2991 RMK A01 T02470208  RH  079%=      5-min Rain = 0
KTH1 201130Z 18005KT 25/21 A2991 RMK A01 T02470208  RH  079%=      5-min Rain = 0
KTH1 201131Z 18007KT 25/21 A2991 RMK A01 T02470208  RH  079%=      5-min Rain = 0
KTH1 201132Z 17006KT 25/21 A2991 RMK A01 T02470208  RH  079%=      5-min Rain = 0
KTH1 201133Z 18005KT 25/21 A2991 RMK A01 T02470208  RH  079%=      5-min Rain = 0
KTH1 201134Z 17005KT 25/21 A2991 RMK A01 T02470207  RH  079%=      5-min Rain = 0
KTH1 201135Z 18006KT 25/21 A2991 RMK A01 T02470208  RH  079%=      5-min Rain = 0
KTH1 201136Z 17004KT 25/21 A2991 RMK A01 T02470208  RH  079%=      5-min Rain = 0
KTH1 201137Z 17004KT 25/21 A2991 RMK A01 T02460208  RH  079%=      5-min Rain = 0
KTH1 201138Z 18006KT 25/21 A2991 RMK A01 T02460208  RH  079%=      5-min Rain = 0
KTH1 201139Z 18006KT 25/21 A2991 RMK A01 T02460208  RH  079%=      5-min Rain = 0
KTH1 201140Z 17005KT 25/21 A2991 RMK A01 T02460208  RH  079%=      5-min Rain = 0
KTH1 201141Z 17004KT 25/21 A2991 RMK A01 T02460208  RH  079%=      5-min Rain = 0
KTH1 201142Z 18004KT 25/21 A2991 RMK A01 T02460208  RH  079%=      5-min Rain = 0
KTH1 201143Z 17005KT 25/21 A2991 RMK A01 T02460208  RH  079%=      5-min Rain = 0
KTH1 201144Z 17006KT 25/21 A2991 RMK A01 T02460208  RH  079%=      5-min Rain = 0
KTH1 201145Z 18006KT 25/21 A2991 RMK A01 T02450208  RH  079%=      5-min Rain = 0
KTH1 201146Z 17005KT 25/21 A2991 RMK A01 T02460208  RH  080%=      5-min Rain = 0
KTH1 201147Z 17003KT 25/21 A2991 RMK A01 T02450208  RH  080%=      5-min Rain = 0
KTH1 201148Z 17005KT 25/21 A2992 RMK A01 T02450208  RH  080%=      5-min Rain = 0
KTH1 201149Z 17004KT 25/21 A2991 RMK A01 T02450208  RH  080%=      5-min Rain = 0
KTH1 201150Z 16005KT 25/21 A2991 RMK A01 T02450208  RH  080%=      5-min Rain = 0
KTH1 201151Z 17004KT 24/21 A2991 RMK A01 T02440208  RH  080%=      5-min Rain = 0
KTH1 201152Z 17004KT 24/21 A2991 RMK A01 T02440208  RH  080%=      5-min Rain = 0
KTH1 201153Z 16006KT 24/21 A2991 RMK A01 T02440208  RH  081%=      5-min Rain = 0
KTH1 201154Z 17006KT 24/21 A2991 RMK A01 T02440208  RH  081%=      5-min Rain = 0
KTH1 201155Z 17005KT 24/21 A2991 RMK A01 T02440208  RH  081%=      5-min Rain = 0
KTH1 201156Z 17005KT 24/21 A2991 RMK A01 T02440209  RH  081%=      5-min Rain = 0
KTH1 201157Z 17005KT 24/21 A2991 RMK A01 T02440209  RH  081%=      5-min Rain = 0
KTH1 201158Z 17005KT 24/21 A2991 RMK A01 T02440209  RH  081%=      5-min Rain = 0
KTH1 201159Z 17005KT 24/21 A2991 RMK A01 T02440209  RH  081%=      5-min Rain = 0
KTH1 201200Z 18005KT 24/21 A2991 RMK A01 T02440209  RH  081%=      5-min Rain = 0
KTH1 201201Z 18005KT 24/21 A2991 RMK A01 T02430209  RH  081%=      5-min Rain = 0
KTH1 201202Z 17003KT 24/21 A2991 RMK A01 T02430209  RH  081%=      5-min Rain = 0
KTH1 201203Z 18004KT 24/21 A2992 RMK A01 T02430209  RH  081%=      5-min Rain = 0
KTH1 201204Z 19006KT 24/21 A2992 RMK A01 T02430209  RH  081%=      5-min Rain = 0
KTH1 201205Z 18005KT 24/21 A2992 RMK A01 T02430209  RH  081%=      5-min Rain = 0
KTH1 201206Z 19003KT 24/21 A2992 RMK A01 T02430209  RH  081%=      5-min Rain = 0
KTH1 201207Z 19005KT 24/21 A2992 RMK A01 T02430209  RH  081%=      5-min Rain = 0
KTH1 201208Z 19006KT 24/21 A2992 RMK A01 T02430209  RH  081%=      5-min Rain = 0
KTH1 201209Z 19006KT 24/21 A2992 RMK A01 T02430209  RH  081%=      5-min Rain = 0
KTH1 201210Z 19006KT 24/21 A2992 RMK A01 T02430209  RH  081%=      5-min Rain = 0
KTH1 201211Z 19005KT 24/21 A2992 RMK A01 T02430208  RH  081%=      5-min Rain = 0
KTH1 201212Z 19005KT 24/21 A2992 RMK A01 T02430209  RH  081%=      5-min Rain = 0
KTH1 201213Z 19005KT 24/21 A2992 RMK A01 T02430208  RH  081%=      5-min Rain = 0
KTH1 201214Z 18004KT 24/21 A2992 RMK A01 T02430209  RH  081%=      5-min Rain = 0
KTH1 201215Z 19007KT 24/21 A2992 RMK A01 T02430209  RH  081%=      5-min Rain = 0
KTH1 201216Z 19006KT 24/21 A2992 RMK A01 T02440209  RH  081%=      5-min Rain = 0
KTH1 201217Z 18006KT 24/21 A2992 RMK A01 T02440209  RH  081%=      5-min Rain = 0
KTH1 201218Z 18006KT 24/21 A2992 RMK A01 T02440209  RH  081%=      5-min Rain = 0
KTH1 201219Z 18007KT 25/21 A2992 RMK A01 T02450209  RH  080%=      5-min Rain = 0
KTH1 201220Z 19006KT 25/21 A2992 RMK A01 T02450209  RH  080%=      5-min Rain = 0
KTH1 201221Z 18005KT 25/21 A2992 RMK A01 T02450209  RH  080%=      5-min Rain = 0
KTH1 201222Z 18004KT 25/21 A2992 RMK A01 T02460209  RH  080%=      5-min Rain = 0
KTH1 201223Z 18005KT 25/21 A2992 RMK A01 T02460209  RH  080%=      5-min Rain = 0
KTH1 201224Z 18005KT 25/21 A2992 RMK A01 T02460209  RH  080%=      5-min Rain = 0
KTH1 201225Z 19005KT 25/21 A2992 RMK A01 T02470209  RH  080%=      5-min Rain = 0
KTH1 201226Z 19005KT 25/21 A2992 RMK A01 T02470209  RH  080%=      5-min Rain = 0
KTH1 201227Z 18003KT 25/21 A2992 RMK A01 T02470209  RH  080%=      5-min Rain = 0
KTH1 201228Z 19004KT 25/21 A2992 RMK A01 T02470209  RH  079%=      5-min Rain = 0
KTH1 201229Z 19006KT 25/21 A2992 RMK A01 T02480210  RH  079%=      5-min Rain = 0
KTH1 201230Z 19005KT 25/21 A2993 RMK A01 T02480210  RH  079%=      5-min Rain = 0
KTH1 201231Z 19005KT 25/21 A2993 RMK A01 T02490210  RH  079%=      5-min Rain = 0
KTH1 201232Z 18003KT 25/21 A2993 RMK A01 T02490210  RH  079%=      5-min Rain = 0
KTH1 201233Z 17005KT 25/21 A2993 RMK A01 T02490210  RH  079%=      5-min Rain = 0
KTH1 201234Z 18005KT 25/21 A2993 RMK A01 T02490210  RH  079%=      5-min Rain = 0
KTH1 201235Z 18006KT 25/21 A2993 RMK A01 T02500210  RH  078%=      5-min Rain = 0
KTH1 201236Z 18006KT 25/21 A2993 RMK A01 T02500210  RH  078%=      5-min Rain = 0
KTH1 201237Z 17005KT 25/21 A2993 RMK A01 T02510210  RH  078%=      5-min Rain = 0
KTH1 201238Z 18006KT 25/21 A2993 RMK A01 T02510210  RH  078%=      5-min Rain = 0
KTH1 201239Z 18005KT 25/21 A2993 RMK A01 T02520210  RH  078%=      5-min Rain = 0
KTH1 201240Z 18006KT 25/21 A2993 RMK A01 T02520211  RH  078%=      5-min Rain = 0
KTH1 201241Z 17005KT 25/21 A2993 RMK A01 T02520209  RH  077%=      5-min Rain = 0
KTH1 201242Z 17005KT 25/21 A2993 RMK A01 T02520210  RH  077%=      5-min Rain = 0
KTH1 201243Z 19005G10KT 25/21 A2993 RMK A01 T02530211  RH  077%=      5-min Rain = 0
KTH1 201244Z 18008KT 25/21 A2993 RMK A01 T02530210  RH  077%=      5-min Rain = 0
KTH1 201245Z 18007KT 25/21 A2993 RMK A01 T02530210  RH  077%=      5-min Rain = 0
KTH1 201246Z 17006KT 25/21 A2993 RMK A01 T02540211  RH  077%=      5-min Rain = 0
KTH1 201247Z 18006KT 25/21 A2993 RMK A01 T02540211  RH  077%=      5-min Rain = 0
KTH1 201248Z 17007KT 25/21 A2993 RMK A01 T02540210  RH  076%=      5-min Rain = 0
KTH1 201249Z 18007KT 26/21 A2993 RMK A01 T02550210  RH  076%=      5-min Rain = 0
KTH1 201250Z 17008KT 26/21 A2993 RMK A01 T02550210  RH  076%=      5-min Rain = 0
KTH1 201251Z 17005KT 26/21 A2993 RMK A01 T02550210  RH  076%=      5-min Rain = 0
KTH1 201252Z 17007KT 26/21 A2993 RMK A01 T02560210  RH  076%=      5-min Rain = 0
KTH1 201253Z 17009KT 26/21 A2993 RMK A01 T02560210  RH  076%=      5-min Rain = 0
KTH1 201254Z 18006KT 26/21 A2993 RMK A01 T02560210  RH  076%=      5-min Rain = 0
KTH1 201255Z 18005KT 26/21 A2993 RMK A01 T02570211  RH  076%=      5-min Rain = 0
KTH1 201256Z 18006KT 26/21 A2993 RMK A01 T02570211  RH  076%=      5-min Rain = 0
KTH1 201257Z 17008KT 26/21 A2993 RMK A01 T02570210  RH  075%=      5-min Rain = 0
KTH1 201258Z 17007G12KT 26/21 A2993 RMK A01 T02580210  RH  075%=      5-min Rain = 0
KTH1 201259Z 18008KT 26/21 A2993 RMK A01 T02580210  RH  075%=      5-min Rain = 0
KTH1 201300Z 17009KT 26/21 A2993 RMK A01 T02580209  RH  075%=      5-min Rain = 0
KTH1 201301Z 18009KT 26/21 A2993 RMK A01 T02590210  RH  074%=      5-min Rain = 0
KTH1 201302Z 18006KT 26/21 A2993 RMK A01 T02580209  RH  074%=      5-min Rain = 0
KTH1 201303Z 19006KT 26/21 A2993 RMK A01 T02590210  RH  074%=      5-min Rain = 0
KTH1 201304Z 18008KT 26/21 A2993 RMK A01 T02590209  RH  074%=      5-min Rain = 0
KTH1 201305Z 19009KT 26/21 A2993 RMK A01 T02590209  RH  074%=      5-min Rain = 0
KTH1 201306Z 18008KT 26/21 A2993 RMK A01 T02600209  RH  074%=      5-min Rain = 0
KTH1 201307Z 18008KT 26/21 A2993 RMK A01 T02600210  RH  074%=      5-min Rain = 0
KTH1 201308Z 19010KT 26/21 A2993 RMK A01 T02610209  RH  073%=      5-min Rain = 0
KTH1 201309Z 18009KT 26/21 A2993 RMK A01 T02610208  RH  073%=      5-min Rain = 0
KTH1 201310Z 19007KT 26/21 A2993 RMK A01 T02610209  RH  073%=      5-min Rain = 0
KTH1 201311Z 19008KT 26/21 A2993 RMK A01 T02620210  RH  073%=      5-min Rain = 0
KTH1 201312Z 18006KT 26/21 A2993 RMK A01 T02620210  RH  073%=      5-min Rain = 0
KTH1 201313Z 18006KT 26/21 A2993 RMK A01 T02630210  RH  073%=      5-min Rain = 0
KTH1 201314Z 19006G11KT 26/21 A2993 RMK A01 T02640211  RH  072%=      5-min Rain = 0
KTH1 201315Z 18009KT 26/21 A2993 RMK A01 T02640209  RH  072%=      5-min Rain = 0
KTH1 201316Z 19008KT 26/21 A2993 RMK A01 T02640209  RH  072%=      5-min Rain = 0
KTH1 201317Z 18009KT 26/21 A2993 RMK A01 T02640209  RH  072%=      5-min Rain = 0
KTH1 201318Z 18010KT 26/21 A2993 RMK A01 T02640208  RH  071%=      5-min Rain = 0
KTH1 201319Z 19008KT 26/21 A2993 RMK A01 T02640208  RH  071%=      5-min Rain = 0
KTH1 201320Z 18008KT 26/21 A2993 RMK A01 T02640208  RH  071%=      5-min Rain = 0
KTH1 201321Z 17008KT 27/21 A2993 RMK A01 T02650209  RH  071%=      5-min Rain = 0
KTH1 201322Z 18010G16KT 27/21 A2993 RMK A01 T02650208  RH  071%=      5-min Rain = 0
KTH1 201323Z 18010KT 27/21 A2993 RMK A01 T02650207  RH  071%=      5-min Rain = 0
KTH1 201324Z 18012G17KT 27/21 A2993 RMK A01 T02650207  RH  070%=      5-min Rain = 0
KTH1 201325Z 19010KT 27/21 A2993 RMK A01 T02650205  RH  070%=      5-min Rain = 0
KTH1 201326Z 18007G12KT 27/21 A2993 RMK A01 T02650207  RH  070%=      5-min Rain = 0
KTH1 201327Z 19009KT 27/21 A2993 RMK A01 T02650206  RH  070%=      5-min Rain = 0
KTH1 201328Z 19009KT 27/21 A2993 RMK A01 T02650206  RH  070%=      5-min Rain = 0
KTH1 201329Z 18010G15KT 27/21 A2993 RMK A01 T02650207  RH  070%=      5-min Rain = 0
KTH1 201330Z 19010KT 27/21 A2993 RMK A01 T02660206  RH  070%=      5-min Rain = 0
KTH1 201331Z 19012KT 27/21 A2993 RMK A01 T02660205  RH  069%=      5-min Rain = 0
KTH1 201332Z 18010KT 27/21 A2993 RMK A01 T02660205  RH  069%=      5-min Rain = 0
KTH1 201333Z 19011KT 27/21 A2993 RMK A01 T02660205  RH  069%=      5-min Rain = 0
KTH1 201334Z 18012G17KT 27/21 A2993 RMK A01 T02670205  RH  069%=      5-min Rain = 0
KTH1 201335Z 17010KT 27/21 A2993 RMK A01 T02670205  RH  069%=      5-min Rain = 0
KTH1 201336Z 19010G15KT 27/20 A2993 RMK A01 T02670204  RH  069%=      5-min Rain = 0
KTH1 201337Z 17008KT 27/20 A2993 RMK A01 T02670204  RH  069%=      5-min Rain = 0
KTH1 201338Z 18008KT 27/21 A2993 RMK A01 T02680206  RH  069%=      5-min Rain = 0
KTH1 201339Z 18010KT 27/21 A2993 RMK A01 T02690205  RH  068%=      5-min Rain = 0
KTH1 201340Z 17010G15KT 27/20 A2993 RMK A01 T02690204  RH  068%=      5-min Rain = 0
KTH1 201341Z 18012G17KT 27/20 A2993 RMK A01 T02690202  RH  067%=      5-min Rain = 0
KTH1 201342Z 19010KT 27/20 A2993 RMK A01 T02690202  RH  067%=      5-min Rain = 0
KTH1 201343Z 18010G16KT 27/20 A2993 RMK A01 T02690202  RH  067%=      5-min Rain = 0
KTH1 201344Z 17010KT 27/20 A2993 RMK A01 T02690202  RH  067%=      5-min Rain = 0
KTH1 201345Z 17008G14KT 27/20 A2993 RMK A01 T02700203  RH  067%=      5-min Rain = 0
KTH1 201346Z 18013KT 27/20 A2993 RMK A01 T02710203  RH  066%=      5-min Rain = 0
KTH1 201347Z 19011G16KT 27/20 A2993 RMK A01 T02710201  RH  066%=      5-min Rain = 0
KTH1 201348Z 19010G15KT 27/20 A2993 RMK A01 T02710202  RH  066%=      5-min Rain = 0
KTH1 201349Z 18007KT 27/20 A2993 RMK A01 T02710202  RH  066%=      5-min Rain = 0
KTH1 201350Z 19008KT 27/20 A2993 RMK A01 T02720203  RH  066%=      5-min Rain = 0
KTH1 201351Z 18009G16KT 27/20 A2993 RMK A01 T02730203  RH  066%=      5-min Rain = 0
KTH1 201352Z 17011G17KT 27/20 A2993 RMK A01 T02730202  RH  065%=      5-min Rain = 0
KTH1 201353Z 18011KT 27/20 A2993 RMK A01 T02740201  RH  065%=      5-min Rain = 0
KTH1 201354Z 18012G17KT 27/20 A2993 RMK A01 T02730200  RH  064%=      5-min Rain = 0
KTH1 201355Z 18011G16KT 27/20 A2993 RMK A01 T02730201  RH  065%=      5-min Rain = 0
KTH1 201356Z 19011G16KT 27/20 A2993 RMK A01 T02720200  RH  065%=      5-min Rain = 0
KTH1 201357Z 20009KT 27/20 A2994 RMK A01 T02720201  RH  065%=      5-min Rain = 0
KTH1 201358Z 17010KT 27/20 A2994 RMK A01 T02730202  RH  065%=      5-min Rain = 0
KTH1 201359Z 19013G18KT 27/20 A2994 RMK A01 T02740199  RH  064%=      5-min Rain = 0
KTH1 201400Z 19012G17KT 27/20 A2994 RMK A01 T02730199  RH  064%=      5-min Rain = 0
KTH1 201401Z 19010KT 27/20 A2994 RMK A01 T02730199  RH  064%=      5-min Rain = 0
KTH1 201402Z 19011KT 27/20 A2994 RMK A01 T02730199  RH  064%=      5-min Rain = 0
KTH1 201403Z 17010KT 27/20 A2994 RMK A01 T02740200  RH  064%=      5-min Rain = 0
KTH1 201404Z 18013KT 27/20 A2994 RMK A01 T02740198  RH  063%=      5-min Rain = 0
KTH1 201405Z 18013KT 27/20 A2994 RMK A01 T02740197  RH  063%=      5-min Rain = 0
KTH1 201406Z 18014G19KT 28/20 A2994 RMK A01 T02750198  RH  063%=      5-min Rain = 0
KTH1 201407Z 19013KT 28/20 A2994 RMK A01 T02750197  RH  063%=      5-min Rain = 0
KTH1 201408Z 19010G16KT 27/20 A2994 RMK A01 T02740198  RH  063%=      5-min Rain = 0
KTH1 201409Z 19007KT 28/20 A2994 RMK A01 T02750199  RH  063%=      5-min Rain = 0
KTH1 201410Z 18010G15KT 28/20 A2994 RMK A01 T02760199  RH  063%=      5-min Rain = 0
KTH1 201411Z 18009KT 28/20 A2994 RMK A01 T02770199  RH  062%=      5-min Rain = 0
KTH1 201412Z 18011KT 28/20 A2994 RMK A01 T02780198  RH  062%=      5-min Rain = 0
KTH1 201413Z 17013G20KT 28/20 A2994 RMK A01 T02780196  RH  061%=      5-min Rain = 0
KTH1 201414Z 18009G16KT 28/20 A2994 RMK A01 T02780197  RH  061%=      5-min Rain = 0
KTH1 201415Z 18010G17KT 28/20 A2994 RMK A01 T02780198  RH  062%=      5-min Rain = 0
KTH1 201416Z 20012G17KT 28/20 A2994 RMK A01 T02790196  RH  061%=      5-min Rain = 0
KTH1 201417Z 18013KT 28/20 A2994 RMK A01 T02790195  RH  060%=      5-min Rain = 0
KTH1 201418Z 18012G18KT 28/20 A2994 RMK A01 T02790195  RH  060%=      5-min Rain = 0
KTH1 201419Z 17012KT 28/19 A2994 RMK A01 T02790194  RH  060%=      5-min Rain = 0
KTH1 201420Z 18011KT 28/19 A2994 RMK A01 T02790194  RH  060%=      5-min Rain = 0
KTH1 201421Z 19010KT 28/20 A2994 RMK A01 T02780195  RH  061%=      5-min Rain = 0
KTH1 201422Z 19008KT 28/20 A2994 RMK A01 T02780197  RH  061%=      5-min Rain = 0
KTH1 201423Z 19009G18KT 28/20 A2994 RMK A01 T02800199  RH  061%=      5-min Rain = 0
KTH1 201424Z 19010G15KT 28/20 A2994 RMK A01 T02820196  RH  060%=      5-min Rain = 0
KTH1 201425Z 18008KT 28/20 A2994 RMK A01 T02820196  RH  059%=      5-min Rain = 0
KTH1 201426Z 19007G13KT 28/20 A2994 RMK A01 T02840197  RH  059%=      5-min Rain = 0
KTH1 201427Z 18008G14KT 29/20 A2994 RMK A01 T02860197  RH  059%=      5-min Rain = 0
KTH1 201428Z 18009KT 29/20 A2994 RMK A01 T02860195  RH  058%=      5-min Rain = 0
KTH1 201429Z 19012KT 29/19 A2994 RMK A01 T02860194  RH  058%=      5-min Rain = 0
KTH1 201430Z 19011G16KT 29/19 A2994 RMK A01 T02860194  RH  058%=      5-min Rain = 0
KTH1 201431Z 17011G17KT 29/19 A2994 RMK A01 T02850194  RH  058%=      5-min Rain = 0
KTH1 201432Z 18011G16KT 29/19 A2994 RMK A01 T02850193  RH  058%=      5-min Rain = 0
KTH1 201433Z 17011G16KT 29/19 A2994 RMK A01 T02850192  RH  057%=      5-min Rain = 0
KTH1 201434Z 18010G15KT 29/19 A2994 RMK A01 T02850192  RH  057%=      5-min Rain = 0
KTH1 201435Z 19011KT 29/19 A2994 RMK A01 T02850191  RH  057%=      5-min Rain = 0
KTH1 201436Z 18012KT 29/19 A2994 RMK A01 T02850191  RH  057%=      5-min Rain = 0
KTH1 201437Z 18014KT 29/19 A2994 RMK A01 T02850191  RH  057%=      5-min Rain = 0
KTH1 201438Z 19012KT 29/19 A2994 RMK A01 T02850191  RH  057%=      5-min Rain = 0
KTH1 201439Z 18012G17KT 29/19 A2994 RMK A01 T02850193  RH  057%=      5-min Rain = 0
KTH1 201440Z 18013KT 29/19 A2994 RMK A01 T02850191  RH  057%=      5-min Rain = 0
KTH1 201441Z 18011G18KT 29/19 A2994 RMK A01 T02850192  RH  057%=      5-min Rain = 0
KTH1 201442Z 19012G18KT 29/19 A2994 RMK A01 T02860190  RH  056%=      5-min Rain = 0
KTH1 201443Z 18011KT 29/19 A2994 RMK A01 T02870190  RH  056%=      5-min Rain = 0
KTH1 201444Z 18011KT 29/19 A2994 RMK A01 T02870191  RH  056%=      5-min Rain = 0
KTH1 201445Z 19012KT 29/19 A2994 RMK A01 T02880190  RH  055%=      5-min Rain = 0
KTH1 201446Z 19012KT 29/19 A2994 RMK A01 T02880189  RH  055%=      5-min Rain = 0
KTH1 201447Z 19012KT 29/19 A2994 RMK A01 T02880188  RH  055%=      5-min Rain = 0
KTH1 201448Z 18008G14KT 29/19 A2994 RMK A01 T02880191  RH  056%=      5-min Rain = 0
KTH1 201449Z 18007KT 29/19 A2994 RMK A01 T02890192  RH  056%=      5-min Rain = 0
KTH1 201450Z 18012G17KT 29/19 A2994 RMK A01 T02910191  RH  055%=      5-min Rain = 0
KTH1 201451Z 19011G18KT 29/19 A2994 RMK A01 T02920189  RH  054%=      5-min Rain = 0
KTH1 201452Z 19009G14KT 29/19 A2994 RMK A01 T02920188  RH  054%=      5-min Rain = 0
KTH1 201453Z 19011G17KT 29/19 A2994 RMK A01 T02920188  RH  054%=      5-min Rain = 0
KTH1 201454Z 19010KT 29/19 A2994 RMK A01 T02910189  RH  054%=      5-min Rain = 0
KTH1 201455Z 18011KT 29/19 A2994 RMK A01 T02910189  RH  054%=      5-min Rain = 0
KTH1 201456Z 18011KT 29/19 A2994 RMK A01 T02910190  RH  054%=      5-min Rain = 0
KTH1 201457Z 18013KT 29/19 A2994 RMK A01 T02920189  RH  054%=      5-min Rain = 0
KTH1 201458Z 19010G16KT 29/19 A2994 RMK A01 T02920188  RH  053%=      5-min Rain = 0
KTH1 201459Z 19013KT 29/19 A2994 RMK A01 T02920189  RH  054%=      5-min Rain = 0
KTH1 201500Z 18011KT 29/19 A2994 RMK A01 T02920189  RH  054%=      5-min Rain = 0
KTH1 201501Z 17010G16KT 29/19 A2994 RMK A01 T02920189  RH  054%=      5-min Rain = 0
KTH1 201502Z 18013G19KT 29/19 A2994 RMK A01 T02930188  RH  053%=      5-min Rain = 0
KTH1 201503Z 19013KT 29/19 A2994 RMK A01 T02930188  RH  053%=      5-min Rain = 0
KTH1 201504Z 18009G15KT 29/19 A2994 RMK A01 T02930188  RH  053%=      5-min Rain = 0
KTH1 201505Z 18010G15KT 29/19 A2994 RMK A01 T02940190  RH  054%=      5-min Rain = 0
KTH1 201506Z 18011KT 30/19 A2994 RMK A01 T02950189  RH  053%=      5-min Rain = 0
KTH1 201507Z 18012KT 30/19 A2994 RMK A01 T02950188  RH  053%=      5-min Rain = 0
KTH1 201508Z 18014KT 30/19 A2993 RMK A01 T02950188  RH  053%=      5-min Rain = 0
KTH1 201509Z 18012KT 30/19 A2993 RMK A01 T02950189  RH  053%=      5-min Rain = 0
KTH1 201510Z 17009KT 30/19 A2993 RMK A01 T02950191  RH  054%=      5-min Rain = 0
KTH1 201511Z 18009KT 30/19 A2993 RMK A01 T02950193  RH  054%=      5-min Rain = 0
KTH1 201512Z 17011KT 30/19 A2993 RMK A01 T02960191  RH  053%=      5-min Rain = 0
KTH1 201513Z 18009KT 30/19 A2993 RMK A01 T02960191  RH  053%=      5-min Rain = 0
KTH1 201514Z 18011KT 30/19 A2993 RMK A01 T02960191  RH  053%=      5-min Rain = 0
KTH1 201515Z 18007KT 30/19 A2993 RMK A01 T02960191  RH  053%=      5-min Rain = 0
KTH1 201516Z 20008G13KT 30/19 A2993 RMK A01 T02970194  RH  054%=      5-min Rain = 0
KTH1 201517Z 19010G15KT 30/19 A2993 RMK A01 T03000192  RH  052%=      5-min Rain = 0
KTH1 201518Z 19008KT 30/19 A2993 RMK A01 T03000192  RH  053%=      5-min Rain = 0
KTH1 201519Z 18008KT 30/19 A2993 RMK A01 T03010194  RH  053%=      5-min Rain = 0
KTH1 201520Z 19008G13KT 30/20 A2993 RMK A01 T03020195  RH  053%=      5-min Rain = 0
KTH1 201521Z 18010KT 30/19 A2993 RMK A01 T03030192  RH  051%=      5-min Rain = 0
KTH1 201522Z 18011G16KT 30/19 A2993 RMK A01 T03030192  RH  051%=      5-min Rain = 0
KTH1 201523Z 18012KT 30/19 A2993 RMK A01 T03010191  RH  052%=      5-min Rain = 0
KTH1 201524Z 18010KT 30/19 A2993 RMK A01 T03010192  RH  052%=      5-min Rain = 0
KTH1 201525Z 19010G15KT 30/19 A2993 RMK A01 T03020193  RH  052%=      5-min Rain = 0
KTH1 201526Z 19010KT 30/19 A2993 RMK A01 T03030192  RH  051%=      5-min Rain = 0
KTH1 201527Z 19011KT 30/19 A2993 RMK A01 T03030192  RH  051%=      5-min Rain = 0
KTH1 201528Z 18011KT 30/19 A2993 RMK A01 T03030192  RH  051%=      5-min Rain = 0
KTH1 201529Z 18010KT 30/19 A2993 RMK A01 T03020193  RH  052%=      5-min Rain = 0
KTH1 201530Z 19007G13KT 30/20 A2993 RMK A01 T03040196  RH  052%=      5-min Rain = 0
KTH1 201531Z 20009G14KT 31/19 A2993 RMK A01 T03060193  RH  051%=      5-min Rain = 0
KTH1 201532Z 19010KT 31/20 A2993 RMK A01 T03050195  RH  052%=      5-min Rain = 0
KTH1 201533Z 20011KT 31/19 A2993 RMK A01 T03070191  RH  050%=      5-min Rain = 0
KTH1 201534Z 19011KT 31/19 A2993 RMK A01 T03050192  RH  051%=      5-min Rain = 0
KTH1 201535Z 18009G14KT 30/19 A2993 RMK A01 T03040192  RH  051%=      5-min Rain = 0
KTH1 201536Z 17009G14KT 30/19 A2993 RMK A01 T03040192  RH  051%=      5-min Rain = 0
KTH1 201537Z 18011KT 30/19 A2993 RMK A01 T03040193  RH  052%=      5-min Rain = 0
KTH1 201538Z 19008KT 31/19 A2993 RMK A01 T03050194  RH  051%=      5-min Rain = 0
KTH1 201539Z 18010G17KT 31/20 A2993 RMK A01 T03060195  RH  051%=      5-min Rain = 0
KTH1 201540Z 17010G15KT 31/20 A2993 RMK A01 T03080195  RH  051%=      5-min Rain = 0
KTH1 201541Z 19012KT 31/19 A2993 RMK A01 T03080194  RH  051%=      5-min Rain = 0
KTH1 201542Z 19008G13KT 31/19 A2993 RMK A01 T03080194  RH  051%=      5-min Rain = 0
KTH1 201543Z 19006KT 31/19 A2993 RMK A01 T03080194  RH  051%=      5-min Rain = 0
KTH1 201544Z 18009KT 31/20 A2993 RMK A01 T03080197  RH  052%=      5-min Rain = 0
KTH1 201545Z 17008G14KT 31/20 A2993 RMK A01 T03090195  RH  051%=      5-min Rain = 0
KTH1 201546Z 18009G15KT 31/20 A2993 RMK A01 T03100196  RH  051%=      5-min Rain = 0
KTH1 201547Z 17012KT 31/20 A2993 RMK A01 T03100195  RH  050%=      5-min Rain = 0
KTH1 201548Z 18007KT 31/20 A2993 RMK A01 T03100196  RH  051%=      5-min Rain = 0
KTH1 201549Z 17008KT 31/20 A2993 RMK A01 T03090196  RH  051%=      5-min Rain = 0
KTH1 201550Z 18009KT 31/20 A2993 RMK A01 T03100197  RH  051%=      5-min Rain = 0
KTH1 201551Z 17007G14KT 31/20 A2993 RMK A01 T03110197  RH  051%=      5-min Rain = 0
KTH1 201552Z 18011KT 31/20 A2993 RMK A01 T03130197  RH  050%=      5-min Rain = 0
KTH1 201553Z 18010KT 31/20 A2993 RMK A01 T03130197  RH  050%=      5-min Rain = 0
KTH1 201554Z 18009KT 31/20 A2993 RMK A01 T03130196  RH  050%=      5-min Rain = 0
KTH1 201555Z 20007G13KT 31/20 A2993 RMK A01 T03120200  RH  051%=      5-min Rain = 0
KTH1 201556Z 19010KT 31/20 A2993 RMK A01 T03140197  RH  050%=      5-min Rain = 0
KTH1 201557Z 18010G15KT 31/20 A2993 RMK A01 T03140196  RH  050%=      5-min Rain = 0
KTH1 201558Z 17010KT 32/20 A2993 RMK A01 T03150197  RH  050%=      5-min Rain = 0
KTH1 201559Z 17012KT 32/20 A2993 RMK A01 T03150195  RH  049%=      5-min Rain = 0
KTH1 201600Z 17011G16KT 31/20 A2993 RMK A01 T03130195  RH  050%=      5-min Rain = 0
KTH1 201601Z 18012KT 31/20 A2993 RMK A01 T03130196  RH  050%=      5-min Rain = 0
KTH1 201602Z 19010KT 31/20 A2993 RMK A01 T03120195  RH  050%=      5-min Rain = 0
KTH1 201603Z 19009KT 31/20 A2993 RMK A01 T03110195  RH  050%=      5-min Rain = 0
KTH1 201604Z 17010G15KT 31/20 A2993 RMK A01 T03110196  RH  050%=      5-min Rain = 0
KTH1 201605Z 17011G17KT 31/20 A2993 RMK A01 T03110196  RH  050%=      5-min Rain = 0
KTH1 201606Z 17010G17KT 31/20 A2993 RMK A01 T03120195  RH  050%=      5-min Rain = 0
KTH1 201607Z 17009G15KT 31/20 A2993 RMK A01 T03120197  RH  051%=      5-min Rain = 0
KTH1 201608Z 17005KT 31/20 A2993 RMK A01 T03130198  RH  050%=      5-min Rain = 0
KTH1 201609Z 19012KT 32/20 A2993 RMK A01 T03150198  RH  050%=      5-min Rain = 0
KTH1 201610Z 20011KT 32/20 A2993 RMK A01 T03160197  RH  049%=      5-min Rain = 0
KTH1 201611Z 20011KT 32/20 A2993 RMK A01 T03160195  RH  049%=      5-min Rain = 0
KTH1 201612Z 19011KT 32/20 A2993 RMK A01 T03160197  RH  049%=      5-min Rain = 0
KTH1 201613Z 17008KT 32/20 A2993 RMK A01 T03160197  RH  049%=      5-min Rain = 0
KTH1 201614Z 17010G15KT 32/20 A2993 RMK A01 T03170198  RH  049%=      5-min Rain = 0
KTH1 201615Z 18011KT 32/20 A2993 RMK A01 T03180195  RH  048%=      5-min Rain = 0
KTH1 201616Z 16007KT 32/20 A2993 RMK A01 T03160197  RH  049%=      5-min Rain = 0
KTH1 201617Z 16011G16KT 32/20 A2993 RMK A01 T03170197  RH  049%=      5-min Rain = 0
KTH1 201618Z 17007KT 32/20 A2993 RMK A01 T03180197  RH  049%=      5-min Rain = 0
KTH1 201619Z 18009KT 32/20 A2993 RMK A01 T03180198  RH  049%=      5-min Rain = 0
KTH1 201620Z 17010G15KT 32/20 A2993 RMK A01 T03190198  RH  049%=      5-min Rain = 0
KTH1 201621Z 18010KT 32/20 A2993 RMK A01 T03200198  RH  049%=      5-min Rain = 0
KTH1 201622Z 18005KT 32/20 A2993 RMK A01 T03200200  RH  049%=      5-min Rain = 0
KTH1 201623Z 16007G13KT 32/20 A2993 RMK A01 T03220200  RH  049%=      5-min Rain = 0
KTH1 201624Z 16012KT 32/20 A2993 RMK A01 T03230197  RH  047%=      5-min Rain = 0
KTH1 201625Z 18010KT 32/20 A2993 RMK A01 T03230198  RH  048%=      5-min Rain = 0
KTH1 201626Z 18012KT 32/20 A2993 RMK A01 T03220196  RH  047%=      5-min Rain = 0
KTH1 201627Z 19010G17KT 32/20 A2993 RMK A01 T03210197  RH  048%=      5-min Rain = 0
KTH1 201628Z 19011KT 32/20 A2993 RMK A01 T03210197  RH  048%=      5-min Rain = 0
KTH1 201629Z 20009G14KT 32/20 A2993 RMK A01 T03200198  RH  049%=      5-min Rain = 0
KTH1 201630Z 19010KT 32/20 A2993 RMK A01 T03220198  RH  048%=      5-min Rain = 0
KTH1 201631Z 19009KT 32/20 A2993 RMK A01 T03230198  RH  048%=      5-min Rain = 0
KTH1 201632Z 18007KT 32/20 A2993 RMK A01 T03240199  RH  048%=      5-min Rain = 0
KTH1 201633Z 19011G16KT 33/20 A2993 RMK A01 T03250200  RH  048%=      5-min Rain = 0
KTH1 201634Z 17008G15KT 33/20 A2993 RMK A01 T03250198  RH  047%=      5-min Rain = 0
KTH1 201635Z 18011KT 32/20 A2993 RMK A01 T03240199  RH  048%=      5-min Rain = 0
KTH1 201636Z 19010G15KT 32/20 A2993 RMK A01 T03240197  RH  047%=      5-min Rain = 0
KTH1 201637Z 16010KT 32/20 A2993 RMK A01 T03240198  RH  047%=      5-min Rain = 0
KTH1 201638Z 16010KT 33/20 A2993 RMK A01 T03250198  RH  047%=      5-min Rain = 0
KTH1 201639Z 18013KT 33/20 A2993 RMK A01 T03250197  RH  047%=      5-min Rain = 0
KTH1 201640Z 17011G17KT 33/20 A2993 RMK A01 T03260198  RH  047%=      5-min Rain = 0
KTH1 201641Z 18011KT 33/20 A2993 RMK A01 T03250197  RH  047%=      5-min Rain = 0
KTH1 201642Z 17010KT 32/20 A2993 RMK A01 T03230196  RH  047%=      5-min Rain = 0
KTH1 201643Z 18010KT 32/20 A2993 RMK A01 T03220197  RH  048%=      5-min Rain = 0
KTH1 201644Z 19008KT 32/20 A2993 RMK A01 T03210197  RH  048%=      5-min Rain = 0
KTH1 201645Z 19008KT 32/20 A2993 RMK A01 T03230199  RH  048%=      5-min Rain = 0
KTH1 201646Z 18009KT 33/20 A2993 RMK A01 T03250200  RH  048%=      5-min Rain = 0
KTH1 201647Z 17007G12KT 33/20 A2993 RMK A01 T03270198  RH  047%=      5-min Rain = 0
KTH1 201648Z 16006KT 33/20 A2993 RMK A01 T03270201  RH  047%=      5-min Rain = 0
KTH1 201649Z 16010G16KT 33/20 A2993 RMK A01 T03290200  RH  047%=      5-min Rain = 0
KTH1 201650Z 17007KT 33/20 A2993 RMK A01 T03300200  RH  046%=      5-min Rain = 0
KTH1 201651Z 18007G13KT 33/20 A2993 RMK A01 T03300202  RH  047%=      5-min Rain = 0
KTH1 201652Z 19009KT 33/20 A2993 RMK A01 T03300202  RH  047%=      5-min Rain = 0
KTH1 201653Z 19006KT 33/20 A2993 RMK A01 T03300199  RH  046%=      5-min Rain = 0
KTH1 201654Z 16010KT 33/20 A2993 RMK A01 T03300202  RH  047%=      5-min Rain = 0
KTH1 201655Z 16012KT 33/20 A2993 RMK A01 T03300199  RH  046%=      5-min Rain = 0
KTH1 201656Z 15012KT 33/20 A2993 RMK A01 T03280200  RH  047%=      5-min Rain = 0
KTH1 201657Z 15010G15KT 33/20 A2993 RMK A01 T03280199  RH  047%=      5-min Rain = 0
KTH1 201658Z 16009KT 33/20 A2993 RMK A01 T03290202  RH  047%=      5-min Rain = 0
KTH1 201659Z 16011G16KT 33/20 A2993 RMK A01 T03310200  RH  046%=      5-min Rain = 0
KTH1 201700Z 16011KT 33/20 A2993 RMK A01 T03310199  RH  046%=      5-min Rain = 0
KTH1 201701Z 15010KT 33/20 A2992 RMK A01 T03290199  RH  046%=      5-min Rain = 0
KTH1 201702Z 16011KT 33/20 A2992 RMK A01 T03280199  RH  047%=      5-min Rain = 0
KTH1 201703Z 18006KT 33/20 A2993 RMK A01 T03300204  RH  048%=      5-min Rain = 0
KTH1 201704Z 18008KT 33/20 A2992 RMK A01 T03340202  RH  046%=      5-min Rain = 0
KTH1 201705Z 18008G14KT 34/20 A2993 RMK A01 T03350202  RH  046%=      5-min Rain = 0
KTH1 201706Z 18008G14KT 33/20 A2993 RMK A01 T03340200  RH  045%=      5-min Rain = 0
KTH1 201707Z 19009G15KT 34/20 A2993 RMK A01 T03350203  RH  046%=      5-min Rain = 0
KTH1 201708Z 17010KT 34/20 A2993 RMK A01 T03370201  RH  045%=      5-min Rain = 0
KTH1 201709Z 16011G16KT 34/20 A2993 RMK A01 T03370201  RH  045%=      5-min Rain = 0
KTH1 201710Z 16010KT 34/20 A2993 RMK A01 T03360199  RH  045%=      5-min Rain = 0
KTH1 201711Z 15012KT 34/20 A2993 RMK A01 T03350200  RH  045%=      5-min Rain = 0
KTH1 201712Z 15011KT 34/20 A2993 RMK A01 T03350197  RH  044%=      5-min Rain = 0
KTH1 201713Z 16013G18KT 34/20 A2993 RMK A01 T03350198  RH  045%=      5-min Rain = 0
KTH1 201714Z 16011KT 33/20 A2993 RMK A01 T03320196  RH  045%=      5-min Rain = 0
KTH1 201715Z 17010KT 33/20 A2993 RMK A01 T03310199  RH  046%=      5-min Rain = 0
KTH1 201716Z 18012KT 33/20 A2993 RMK A01 T03320199  RH  046%=      5-min Rain = 0
KTH1 201717Z 17011G16KT 33/20 A2993 RMK A01 T03320200  RH  046%=      5-min Rain = 0
KTH1 201718Z 18011G17KT 33/20 A2993 RMK A01 T03330199  RH  045%=      5-min Rain = 0
KTH1 201719Z 19011KT 33/20 A2993 RMK A01 T03340199  RH  045%=      5-min Rain = 0
KTH1 201720Z 18008KT 34/20 A2993 RMK A01 T03350200  RH  045%=      5-min Rain = 0
KTH1 201721Z 16009KT 34/20 A2993 RMK A01 T03370200  RH  045%=      5-min Rain = 0
KTH1 201722Z 16008G13KT 34/20 A2993 RMK A01 T03360203  RH  046%=      5-min Rain = 0
KTH1 201723Z 17010KT 34/20 A2993 RMK A01 T03360201  RH  045%=      5-min Rain = 0
KTH1 201724Z 16011G17KT 34/20 A2993 RMK A01 T03370202  RH  045%=      5-min Rain = 0
KTH1 201725Z 19013KT 34/20 A2993 RMK A01 T03380201  RH  045%=      5-min Rain = 0
KTH1 201726Z 18011KT 34/20 A2993 RMK A01 T03360197  RH  044%=      5-min Rain = 0
KTH1 201727Z 18010KT 33/20 A2993 RMK A01 T03340201  RH  046%=      5-min Rain = 0
KTH1 201728Z 17013KT 34/20 A2993 RMK A01 T03350199  RH  045%=      5-min Rain = 0
KTH1 201729Z 16011G16KT 33/20 A2993 RMK A01 T03340198  RH  045%=      5-min Rain = 0
KTH1 201730Z 18012KT 33/20 A2993 RMK A01 T03320199  RH  046%=      5-min Rain = 0
KTH1 201731Z 17006KT 33/20 A2993 RMK A01 T03310202  RH  047%=      5-min Rain = 0
KTH1 201732Z 18010G15KT 33/20 A2993 RMK A01 T03330203  RH  046%=      5-min Rain = 0
KTH1 201733Z 16013KT 34/20 A2993 RMK A01 T03350202  RH  046%=      5-min Rain = 0
KTH1 201734Z 17009KT 34/20 A2993 RMK A01 T03350203  RH  046%=      5-min Rain = 0
KTH1 201735Z 15011KT 34/20 A2993 RMK A01 T03370203  RH  046%=      5-min Rain = 0
KTH1 201736Z 17009KT 34/20 A2993 RMK A01 T03370203  RH  045%=      5-min Rain = 0
KTH1 201737Z 17011KT 34/20 A2993 RMK A01 T03380200  RH  045%=      5-min Rain = 0
KTH1 201738Z 18010KT 34/20 A2993 RMK A01 T03370200  RH  045%=      5-min Rain = 0
KTH1 201739Z 16007G12KT 34/20 A2993 RMK A01 T03350203  RH  046%=      5-min Rain = 0
KTH1 201740Z 16008KT 34/21 A2993 RMK A01 T03380206  RH  046%=      5-min Rain = 0
KTH1 201741Z 16007KT 34/21 A2993 RMK A01 T03420207  RH  045%=      5-min Rain = 0
KTH1 201742Z 18012KT 35/20 A2993 RMK A01 T03450204  RH  044%=      5-min Rain = 0
KTH1 201743Z 17011KT 34/20 A2993 RMK A01 T03440202  RH  043%=      5-min Rain = 0
KTH1 201744Z 18012KT 34/20 A2993 RMK A01 T03430201  RH  043%=      5-min Rain = 0
KTH1 201745Z 18009KT 34/20 A2993 RMK A01 T03410201  RH  044%=      5-min Rain = 0
KTH1 201746Z 18009KT 34/20 A2993 RMK A01 T03400202  RH  044%=      5-min Rain = 0
KTH1 201747Z 17011KT 34/20 A2993 RMK A01 T03400203  RH  045%=      5-min Rain = 0
KTH1 201748Z 15012KT 34/20 A2993 RMK A01 T03410201  RH  044%=      5-min Rain = 0
KTH1 201749Z 17010G17KT 34/20 A2993 RMK A01 T03400204  RH  045%=      5-min Rain = 0
KTH1 201750Z 16013KT 34/20 A2992 RMK A01 T03400204  RH  045%=      5-min Rain = 0
KTH1 201751Z 16013KT 34/20 A2992 RMK A01 T03400201  RH  044%=      5-min Rain = 0
KTH1 201752Z 15011KT 34/20 A2992 RMK A01 T03390200  RH  044%=      5-min Rain = 0
KTH1 201753Z 15011KT 34/20 A2992 RMK A01 T03390202  RH  045%=      5-min Rain = 0
KTH1 201754Z 17010G15KT 34/20 A2992 RMK A01 T03400202  RH  045%=      5-min Rain = 0
KTH1 201755Z 16007G12KT 34/20 A2992 RMK A01 T03390204  RH  045%=      5-min Rain = 0
KTH1 201756Z 16010G16KT 34/20 A2992 RMK A01 T03390204  RH  045%=      5-min Rain = 0
KTH1 201757Z 16011KT 34/20 A2992 RMK A01 T03410202  RH  044%=      5-min Rain = 0
KTH1 201758Z 15010KT 34/20 A2992 RMK A01 T03420200  RH  044%=      5-min Rain = 0
KTH1 201759Z 16009G14KT 34/20 A2992 RMK A01 T03410203  RH  044%=      5-min Rain = 0
KTH1 201800Z 17013KT 34/20 A2992 RMK A01 T03430203  RH  044%=      5-min Rain = 0
KTH1 201801Z 18012G17KT 34/20 A2992 RMK A01 T03430201  RH  043%=      5-min Rain = 0
KTH1 201802Z 19009KT 34/20 A2992 RMK A01 T03420200  RH  043%=      5-min Rain = 0
KTH1 201803Z 18011KT 34/20 A2992 RMK A01 T03430201  RH  043%=      5-min Rain = 0
KTH1 201804Z 19009KT 35/20 A2992 RMK A01 T03450199  RH  043%=      5-min Rain = 0
KTH1 201805Z 18010KT 35/20 A2992 RMK A01 T03450200  RH  043%=      5-min Rain = 0
KTH1 201806Z 16013KT 35/20 A2992 RMK A01 T03450202  RH  043%=      5-min Rain = 0
KTH1 201807Z 15009G14KT 34/20 A2992 RMK A01 T03440202  RH  043%=      5-min Rain = 0
KTH1 201808Z 16010G15KT 34/21 A2992 RMK A01 T03430205  RH  044%=      5-min Rain = 0
KTH1 201809Z 16010KT 34/20 A2992 RMK A01 T03440203  RH  044%=      5-min Rain = 0
KTH1 201810Z 14012G17KT 34/20 A2992 RMK A01 T03440202  RH  043%=      5-min Rain = 0
KTH1 201811Z 15013G18KT 34/20 A2992 RMK A01 T03440199  RH  043%=      5-min Rain = 0
KTH1 201812Z 16009KT 35/20 A2992 RMK A01 T03450202  RH  043%=      5-min Rain = 0
KTH1 201813Z 17008KT 35/21 A2992 RMK A01 T03470205  RH  043%=      5-min Rain = 0
KTH1 201814Z 15010KT 35/20 A2992 RMK A01 T03490203  RH  042%=      5-min Rain = 0
KTH1 201815Z 15012G17KT 35/20 A2991 RMK A01 T03480203  RH  043%=      5-min Rain = 0
KTH1 201816Z 15014KT 35/20 A2991 RMK A01 T03460203  RH  043%=      5-min Rain = 0
KTH1 201817Z 18008KT 35/20 A2991 RMK A01 T03460203  RH  043%=      5-min Rain = 0
KTH1 201818Z 18009KT 35/20 A2991 RMK A01 T03470204  RH  043%=      5-min Rain = 0
KTH1 201819Z 18013KT 35/20 A2991 RMK A01 T03480201  RH  042%=      5-min Rain = 0
KTH1 201820Z 18016KT 35/20 A2991 RMK A01 T03470201  RH  042%=      5-min Rain = 0
KTH1 201821Z 18011G16KT 35/20 A2991 RMK A01 T03460198  RH  042%=      5-min Rain = 0
KTH1 201822Z 18010KT 35/20 A2991 RMK A01 T03450198  RH  042%=      5-min Rain = 0
KTH1 201823Z 17011KT 35/20 A2991 RMK A01 T03460200  RH  042%=      5-min Rain = 0
KTH1 201824Z 17009KT 35/20 A2991 RMK A01 T03470203  RH  043%=      5-min Rain = 0
KTH1 201825Z 16006KT 35/21 A2991 RMK A01 T03480205  RH  043%=      5-min Rain = 0
KTH1 201826Z 16006KT 35/21 A2991 RMK A01 T03500206  RH  043%=      5-min Rain = 0
KTH1 201827Z 15015G21KT 35/20 A2991 RMK A01 T03520202  RH  042%=      5-min Rain = 0
KTH1 201828Z 16013G18KT 35/20 A2991 RMK A01 T03500201  RH  042%=      5-min Rain = 0
KTH1 201829Z 19012G17KT 35/20 A2991 RMK A01 T03490201  RH  042%=      5-min Rain = 0
KTH1 201830Z 18011G17KT 35/20 A2991 RMK A01 T03480200  RH  042%=      5-min Rain = 0
KTH1 201831Z 17009KT 35/20 A2991 RMK A01 T03470198  RH  042%=      5-min Rain = 0
KTH1 201832Z 16009KT 35/20 A2991 RMK A01 T03470202  RH  043%=      5-min Rain = 0
KTH1 201833Z 15013G19KT 35/20 A2991 RMK A01 T03510200  RH  041%=      5-min Rain = 0
KTH1 201834Z 17010KT 35/20 A2991 RMK A01 T03520198  RH  040%=      5-min Rain = 0
KTH1 201835Z 17007KT 35/20 A2991 RMK A01 T03490202  RH  042%=      5-min Rain = 0
KTH1 201836Z 16011G16KT 35/20 A2991 RMK A01 T03490203  RH  043%=      5-min Rain = 0
KTH1 201837Z 15011KT 35/20 A2991 RMK A01 T03510202  RH  042%=      5-min Rain = 0
KTH1 201838Z 15012G17KT 35/20 A2991 RMK A01 T03520201  RH  041%=      5-min Rain = 0
KTH1 201839Z 14010KT 35/20 A299 RMK A01 T03510201  RH  042%=      5-min Rain = 0
KTH1 201840Z 17011G16KT 35/20 A2991 RMK A01 T03520203  RH  042%=      5-min Rain = 0
KTH1 201841Z 15012G18KT 35/20 A299 RMK A01 T03530203  RH  042%=      5-min Rain = 0
KTH1 201842Z 15015G20KT 35/20 A299 RMK A01 T03530200  RH  041%=      5-min Rain = 0
KTH1 201843Z 16014KT 35/20 A299 RMK A01 T03530199  RH  041%=      5-min Rain = 0
KTH1 201844Z 17011G16KT 35/20 A299 RMK A01 T03530199  RH  041%=      5-min Rain = 0
KTH1 201845Z 17013G20KT 35/20 A299 RMK A01 T03530200  RH  041%=      5-min Rain = 0
KTH1 201846Z 16014KT 35/20 A299 RMK A01 T03530200  RH  041%=      5-min Rain = 0
KTH1 201847Z 16011KT 35/20 A299 RMK A01 T03510198  RH  041%=      5-min Rain = 0
KTH1 201848Z 17011KT 35/20 A299 RMK A01 T03500199  RH  041%=      5-min Rain = 0
KTH1 201849Z 17011KT 35/20 A299 RMK A01 T03490202  RH  042%=      5-min Rain = 0
KTH1 201850Z 18010G15KT 35/20 A299 RMK A01 T03500203  RH  042%=      5-min Rain = 0
KTH1 201851Z 18010KT 35/21 A299 RMK A01 T03510205  RH  043%=      5-min Rain = 0
KTH1 201852Z 16011KT 35/21 A299 RMK A01 T03520205  RH  042%=      5-min Rain = 0
KTH1 201853Z 17012KT 35/21 A299 RMK A01 T03520205  RH  042%=      5-min Rain = 0
KTH1 201854Z 17011KT 35/20 A299 RMK A01 T03510204  RH  042%=      5-min Rain = 0
KTH1 201855Z 15014KT 35/20 A299 RMK A01 T03520201  RH  041%=      5-min Rain = 0
KTH1 201856Z 15012G17KT 35/20 A299 RMK A01 T03530200  RH  041%=      5-min Rain = 0
KTH1 201857Z 16013KT 35/20 A299 RMK A01 T03520199  RH  041%=      5-min Rain = 0
KTH1 201858Z 16014G20KT 35/20 A299 RMK A01 T03520202  RH  042%=      5-min Rain = 0
KTH1 201859Z 16014KT 35/20 A299 RMK A01 T03530200  RH  041%=      5-min Rain = 0
KTH1 201900Z 16012G17KT 35/20 A299 RMK A01 T03520201  RH  041%=      5-min Rain = 0
KTH1 201901Z 16011G18KT 35/20 A299 RMK A01 T03520203  RH  042%=      5-min Rain = 0
KTH1 201902Z 16011G16KT 35/20 A299 RMK A01 T03520202  RH  041%=      5-min Rain = 0
KTH1 201903Z 18011KT 35/20 A299 RMK A01 T03540203  RH  042%=      5-min Rain = 0
KTH1 201904Z 19011KT 35/20 A2989 RMK A01 T03530202  RH  041%=      5-min Rain = 0
KTH1 201905Z 17008KT 35/21 A2989 RMK A01 T03540205  RH  042%=      5-min Rain = 0
KTH1 201906Z 18011G18KT 36/20 A2989 RMK A01 T03560202  RH  041%=      5-min Rain = 0
KTH1 201907Z 17014KT 36/20 A2989 RMK A01 T03560198  RH  040%=      5-min Rain = 0
KTH1 201908Z 19008KT 35/20 A2989 RMK A01 T03530201  RH  041%=      5-min Rain = 0
KTH1 201909Z 16010G17KT 36/20 A2989 RMK A01 T03560202  RH  041%=      5-min Rain = 0
KTH1 201910Z 18008G13KT 36/20 A2989 RMK A01 T03580202  RH  040%=      5-min Rain = 0
KTH1 201911Z 17007KT 36/20 A2989 RMK A01 T03580203  RH  041%=      5-min Rain = 0
KTH1 201912Z 16013G19KT 36/20 A2989 RMK A01 T03570203  RH  041%=      5-min Rain = 0
KTH1 201913Z 18013G18KT 36/20 A2989 RMK A01 T03580201  RH  040%=      5-min Rain = 0
KTH1 201914Z 18014KT 36/20 A2989 RMK A01 T03580196  RH  039%=      5-min Rain = 0
KTH1 201915Z 16009KT 36/20 A2989 RMK A01 T03560196  RH  039%=      5-min Rain = 0
KTH1 201916Z 17011KT 36/20 A2989 RMK A01 T03560197  RH  039%=      5-min Rain = 0
KTH1 201917Z 17012G21KT 36/20 A2989 RMK A01 T03570198  RH  040%=      5-min Rain = 0
KTH1 201918Z 17014KT 36/20 A2989 RMK A01 T03580198  RH  039%=      5-min Rain = 0
KTH1 201919Z 18011G17KT 36/20 A2989 RMK A01 T03580197  RH  039%=      5-min Rain = 0
KTH1 201920Z 19013KT 36/20 A2989 RMK A01 T03580198  RH  039%=      5-min Rain = 0
KTH1 201921Z 18008KT 36/20 A2989 RMK A01 T03580197  RH  039%=      5-min Rain = 0
KTH1 201922Z 18010G18KT 36/20 A2989 RMK A01 T03590199  RH  039%=      5-min Rain = 0
KTH1 201923Z 17010G15KT 36/20 A2989 RMK A01 T03610198  RH  039%=      5-min Rain = 0
KTH1 201924Z 18009KT 36/20 A2989 RMK A01 T03610197  RH  038%=      5-min Rain = 0
KTH1 201925Z 16010KT 36/20 A2989 RMK A01 T03620198  RH  038%=      5-min Rain = 0
KTH1 201926Z 19014G19KT 36/20 A2989 RMK A01 T03620197  RH  038%=      5-min Rain = 0
KTH1 201927Z 19013KT 36/20 A2989 RMK A01 T03600196  RH  038%=      5-min Rain = 0
KTH1 201928Z 19013KT 36/20 A2989 RMK A01 T03590195  RH  038%=      5-min Rain = 0
KTH1 201929Z 19017KT 36/19 A2988 RMK A01 T03590194  RH  038%=      5-min Rain = 0
KTH1 201930Z 17011G17KT 36/20 A2989 RMK A01 T03580195  RH  038%=      5-min Rain = 0
KTH1 201931Z 15012G19KT 36/20 A2989 RMK A01 T03590195  RH  038%=      5-min Rain = 0
KTH1 201932Z 17013G18KT 36/20 A2989 RMK A01 T03590197  RH  039%=      5-min Rain = 0
KTH1 201933Z 19014KT 36/20 A2988 RMK A01 T03590196  RH  038%=      5-min Rain = 0
KTH1 201934Z 19009G14KT 36/20 A2988 RMK A01 T03590197  RH  039%=      5-min Rain = 0
KTH1 201935Z 18006KT 36/20 A2989 RMK A01 T03600201  RH  040%=      5-min Rain = 0
KTH1 201936Z 16009G16KT 36/20 A2988 RMK A01 T03630203  RH  039%=      5-min Rain = 0
KTH1 201937Z 17013KT 37/20 A2988 RMK A01 T03650199  RH  038%=      5-min Rain = 0
KTH1 201938Z 16010KT 36/20 A2988 RMK A01 T03630198  RH  038%=      5-min Rain = 0
KTH1 201939Z 15016KT 36/20 A2988 RMK A01 T03620197  RH  038%=      5-min Rain = 0
KTH1 201940Z 15014KT 36/20 A2988 RMK A01 T03610196  RH  038%=      5-min Rain = 0
KTH1 201941Z 15010KT 36/20 A2988 RMK A01 T03600196  RH  038%=      5-min Rain = 0
KTH1 201942Z 16007G12KT 36/20 A2988 RMK A01 T03590199  RH  039%=      5-min Rain = 0
KTH1 201943Z 18010KT 36/20 A2988 RMK A01 T03610201  RH  039%=      5-min Rain = 0
KTH1 201944Z 18014KT 36/20 A2988 RMK A01 T03630197  RH  038%=      5-min Rain = 0
KTH1 201945Z 17007KT 36/19 A2988 RMK A01 T03630193  RH  037%=      5-min Rain = 0
KTH1 201946Z 18005KT 36/20 A2988 RMK A01 T03620197  RH  038%=      5-min Rain = 0
KTH1 201947Z 19008G15KT 37/20 A2988 RMK A01 T03650197  RH  038%=      5-min Rain = 0
KTH1 201948Z 17011G16KT 37/20 A2988 RMK A01 T03660197  RH  037%=      5-min Rain = 0
KTH1 201949Z 18009G14KT 37/20 A2988 RMK A01 T03660199  RH  038%=      5-min Rain = 0
KTH1 201950Z 18013KT 37/20 A2988 RMK A01 T03660198  RH  038%=      5-min Rain = 0
KTH1 201951Z 20012KT 37/20 A2988 RMK A01 T03650195  RH  037%=      5-min Rain = 0
KTH1 201952Z 19012G18KT 36/20 A2988 RMK A01 T03640195  RH  037%=      5-min Rain = 0
KTH1 201953Z 19013G18KT 36/19 A2988 RMK A01 T03640194  RH  037%=      5-min Rain = 0
KTH1 201954Z 20013G19KT 36/20 A2988 RMK A01 T03620195  RH  038%=      5-min Rain = 0
KTH1 201955Z 20009KT 36/20 A2988 RMK A01 T03610197  RH  038%=      5-min Rain = 0
KTH1 201956Z 18008KT 36/20 A2988 RMK A01 T03610198  RH  039%=      5-min Rain = 0
KTH1 201957Z 17009G14KT 36/20 A2987 RMK A01 T03630199  RH  038%=      5-min Rain = 0
KTH1 201958Z 16011G17KT 37/20 A2988 RMK A01 T03650198  RH  038%=      5-min Rain = 0
KTH1 201959Z 16014KT 37/20 A2988 RMK A01 T03650196  RH  037%=      5-min Rain = 0
KTH1 202000Z 17012KT 37/20 A2988 RMK A01 T03650196  RH  037%=      5-min Rain = 0
KTH1 202001Z 18008KT 36/20 A2988 RMK A01 T03640197  RH  038%=      5-min Rain = 0
KTH1 202002Z 17007G12KT 37/20 A2988 RMK A01 T03650200  RH  038%=      5-min Rain = 0
KTH1 202003Z 17010G17KT 37/20 A2988 RMK A01 T03670200  RH  038%=      5-min Rain = 0
KTH1 202004Z 18012KT 37/20 A2987 RMK A01 T03670199  RH  038%=      5-min Rain = 0
KTH1 202005Z 17011G16KT 37/20 A2988 RMK A01 T03690197  RH  037%=      5-min Rain = 0
KTH1 202006Z 16009G15KT 37/20 A2987 RMK A01 T03670197  RH  037%=      5-min Rain = 0
KTH1 202007Z 17009G15KT 37/20 A2987 RMK A01 T03660199  RH  038%=      5-min Rain = 0
KTH1 202008Z 18009G14KT 37/19 A2987 RMK A01 T03680194  RH  036%=      5-min Rain = 0
KTH1 202009Z 18012KT 37/19 A2987 RMK A01 T03680192  RH  036%=      5-min Rain = 0
KTH1 202010Z 17008KT 37/19 A2987 RMK A01 T03670194  RH  037%=      5-min Rain = 0
KTH1 202011Z 15012G20KT 37/20 A2987 RMK A01 T03670196  RH  037%=      5-min Rain = 0
KTH1 202012Z 16014G22KT 37/19 A2987 RMK A01 T03680194  RH  036%=      5-min Rain = 0
KTH1 202013Z 16011KT 37/20 A2987 RMK A01 T03660196  RH  037%=      5-min Rain = 0
KTH1 202014Z 16010KT 37/20 A2987 RMK A01 T03660196  RH  037%=      5-min Rain = 0
KTH1 202015Z 15012KT 37/20 A2987 RMK A01 T03660196  RH  037%=      5-min Rain = 0
KTH1 202016Z 16010KT 37/20 A2987 RMK A01 T03670195  RH  037%=      5-min Rain = 0
KTH1 202017Z 18013G20KT 37/20 A2987 RMK A01 T03670197  RH  037%=      5-min Rain = 0
KTH1 202018Z 19011G16KT 37/20 A2987 RMK A01 T03680196  RH  037%=      5-min Rain = 0
KTH1 202019Z 19013KT 37/19 A2987 RMK A01 T03680193  RH  036%=      5-min Rain = 0
KTH1 202020Z 18011KT 36/19 A2987 RMK A01 T03640192  RH  037%=      5-min Rain = 0
KTH1 202021Z 16009G16KT 36/19 A2987 RMK A01 T03630194  RH  037%=      5-min Rain = 0
KTH1 202022Z 15012KT 36/19 A2987 RMK A01 T03630193  RH  037%=      5-min Rain = 0
KTH1 202023Z 15012KT 36/19 A2987 RMK A01 T03640194  RH  037%=      5-min Rain = 0
KTH1 202024Z 16013G19KT 36/19 A2987 RMK A01 T03640193  RH  037%=      5-min Rain = 0
KTH1 202025Z 15013KT 36/19 A2987 RMK A01 T03640194  RH  037%=      5-min Rain = 0
KTH1 202026Z 16013KT 36/20 A2987 RMK A01 T03640195  RH  037%=      5-min Rain = 0
KTH1 202027Z 16012KT 36/19 A2987 RMK A01 T03640194  RH  037%=      5-min Rain = 0
KTH1 202028Z 17013KT 36/19 A2987 RMK A01 T03630193  RH  037%=      5-min Rain = 0
KTH1 202029Z 17015KT 36/19 A2987 RMK A01 T03620193  RH  037%=      5-min Rain = 0
KTH1 202030Z 17016G22KT 36/19 A2987 RMK A01 T03600192  RH  037%=      5-min Rain = 0
KTH1 202031Z 16012G17KT 36/19 A2987 RMK A01 T03600192  RH  037%=      5-min Rain = 0
KTH1 202032Z 16012KT 36/19 A2987 RMK A01 T03600193  RH  038%=      5-min Rain = 0
KTH1 202033Z 16009G15KT 36/19 A2987 RMK A01 T03600194  RH  038%=      5-min Rain = 0
KTH1 202034Z 16009KT 36/20 A2987 RMK A01 T03630196  RH  038%=      5-min Rain = 0
KTH1 202035Z 15010KT 37/20 A2987 RMK A01 T03660195  RH  037%=      5-min Rain = 0
KTH1 202036Z 17015KT 37/19 A2987 RMK A01 T03670193  RH  036%=      5-min Rain = 0
KTH1 202037Z 18011G16KT 37/19 A2987 RMK A01 T03650192  RH  036%=      5-min Rain = 0
KTH1 202038Z 17007KT 36/20 A2986 RMK A01 T03640196  RH  038%=      5-min Rain = 0
KTH1 202039Z 18006KT 37/20 A2987 RMK A01 T03660199  RH  038%=      5-min Rain = 0
KTH1 202040Z 19009KT 37/20 A2986 RMK A01 T03690197  RH  037%=      5-min Rain = 0
KTH1 202041Z 18008G13KT 37/20 A2986 RMK A01 T03700197  RH  037%=      5-min Rain = 0
KTH1 202042Z 15009KT 37/20 A2986 RMK A01 T03710200  RH  037%=      5-min Rain = 0
KTH1 202043Z 14011G16KT 37/20 A2986 RMK A01 T03700201  RH  037%=      5-min Rain = 0
KTH1 202044Z 17008KT 37/20 A2986 RMK A01 T03710202  RH  038%=      5-min Rain = 0
KTH1 202045Z 17012G17KT 37/20 A2986 RMK A01 T03710201  RH  037%=      5-min Rain = 0
KTH1 202046Z 16009KT 37/20 A2986 RMK A01 T03710201  RH  037%=      5-min Rain = 0
KTH1 202047Z 17011KT 37/20 A2986 RMK A01 T03690199  RH  037%=      5-min Rain = 0
KTH1 202048Z 17010G16KT 37/20 A2986 RMK A01 T03690199  RH  037%=      5-min Rain = 0
KTH1 202049Z 17012KT 37/20 A2986 RMK A01 T03690198  RH  037%=      5-min Rain = 0
KTH1 202050Z 16015G21KT 37/20 A2986 RMK A01 T03680198  RH  037%=      5-min Rain = 0
KTH1 202051Z 15011G17KT 37/20 A2986 RMK A01 T03670199  RH  038%=      5-min Rain = 0
KTH1 202052Z 15012KT 37/20 A2986 RMK A01 T03670199  RH  038%=      5-min Rain = 0
KTH1 202053Z 17009KT 37/20 A2986 RMK A01 T03670199  RH  037%=      5-min Rain = 0
KTH1 202054Z 16009G14KT 37/20 A2986 RMK A01 T03670198  RH  037%=      5-min Rain = 0
KTH1 202055Z 16006KT 37/20 A2986 RMK A01 T03660201  RH  038%=      5-min Rain = 0
KTH1 202056Z 15013G22KT 37/20 A2986 RMK A01 T03670198  RH  037%=      5-min Rain = 0
KTH1 202057Z 16014G20KT 37/20 A2986 RMK A01 T03670197  RH  037%=      5-min Rain = 0
KTH1 202058Z 16013KT 37/20 A2986 RMK A01 T03660198  RH  038%=      5-min Rain = 0
KTH1 202059Z 16011G16KT 37/20 A2987 RMK A01 T03650195  RH  037%=      5-min Rain = 0
KTH1 202100Z 15010G17KT 36/20 A2986 RMK A01 T03630195  RH  038%=      5-min Rain = 0
KTH1 202101Z 17012KT 36/20 A2986 RMK A01 T03620197  RH  038%=      5-min Rain = 0
KTH1 202102Z 18012KT 36/20 A2986 RMK A01 T03620197  RH  038%=      5-min Rain = 0
KTH1 202103Z 17014G19KT 36/20 A2986 RMK A01 T03620196  RH  038%=      5-min Rain = 0
KTH1 202104Z 16012KT 36/20 A2986 RMK A01 T03620197  RH  038%=      5-min Rain = 0
KTH1 202105Z 16013KT 36/20 A2986 RMK A01 T03620196  RH  038%=      5-min Rain = 0
KTH1 202106Z 16012G20KT 36/20 A2986 RMK A01 T03620196  RH  038%=      5-min Rain = 0
KTH1 202107Z 16013G19KT 36/20 A2986 RMK A01 T03620195  RH  038%=      5-min Rain = 0
KTH1 202108Z 15013KT 36/20 A2986 RMK A01 T03630195  RH  038%=      5-min Rain = 0
KTH1 202109Z 15015KT 36/19 A2986 RMK A01 T03640194  RH  037%=      5-min Rain = 0
KTH1 202110Z 16010KT 36/20 A2986 RMK A01 T03640196  RH  037%=      5-min Rain = 0
KTH1 202111Z 16009G15KT 36/20 A2986 RMK A01 T03640198  RH  038%=      5-min Rain = 0
KTH1 202112Z 15011KT 37/20 A2986 RMK A01 T03650195  RH  037%=      5-min Rain = 0
KTH1 202113Z 16012KT 37/20 A2986 RMK A01 T03660197  RH  037%=      5-min Rain = 0
KTH1 202114Z 17009KT 37/20 A2986 RMK A01 T03660198  RH  037%=      5-min Rain = 0
KTH1 202115Z 18008G13KT 37/20 A2986 RMK A01 T03670197  RH  037%=      5-min Rain = 0
KTH1 202116Z 17009KT 37/20 A2986 RMK A01 T03670199  RH  038%=      5-min Rain = 0
KTH1 202117Z 16007KT 37/20 A2986 RMK A01 T03680199  RH  037%=      5-min Rain = 0
KTH1 202118Z 16007G12KT 37/20 A2986 RMK A01 T03700200  RH  037%=      5-min Rain = 0
KTH1 202119Z 17008KT 37/20 A2986 RMK A01 T03710198  RH  037%=      5-min Rain = 0
KTH1 202120Z 15007G15KT 37/20 A2986 RMK A01 T03710199  RH  037%=      5-min Rain = 0
KTH1 202121Z 16011KT 37/20 A2986 RMK A01 T03720201  RH  037%=      5-min Rain = 0
KTH1 202122Z 16014G19KT 37/20 A2986 RMK A01 T03730196  RH  036%=      5-min Rain = 0
KTH1 202123Z 16014KT 37/19 A2986 RMK A01 T03710192  RH  035%=      5-min Rain = 0
KTH1 202124Z 16010KT 37/19 A2986 RMK A01 T03670192  RH  036%=      5-min Rain = 0
KTH1 202125Z 15010KT 37/19 A2986 RMK A01 T03670194  RH  036%=      5-min Rain = 0
KTH1 202126Z 15007KT 37/19 A2986 RMK A01 T03670194  RH  036%=      5-min Rain = 0
KTH1 202127Z 16009G14KT 37/20 A2986 RMK A01 T03700198  RH  037%=      5-min Rain = 0
KTH1 202128Z 15009G18KT 37/20 A2986 RMK A01 T03710196  RH  036%=      5-min Rain = 0
KTH1 202129Z 16013G18KT 37/19 A2986 RMK A01 T03710194  RH  035%=      5-min Rain = 0
KTH1 202130Z 17006G13KT 37/20 A2986 RMK A01 T03710198  RH  037%=      5-min Rain = 0
KTH1 202131Z 16010G18KT 37/20 A2986 RMK A01 T03740196  RH  036%=      5-min Rain = 0
KTH1 202132Z 16010G18KT 38/19 A2986 RMK A01 T03750193  RH  035%=      5-min Rain = 0
KTH1 202133Z 17013G19KT 37/19 A2986 RMK A01 T03720191  RH  035%=      5-min Rain = 0
KTH1 202134Z 16010G15KT 37/19 A2986 RMK A01 T03690191  RH  035%=      5-min Rain = 0
KTH1 202135Z 16007KT 37/19 A2985 RMK A01 T03670192  RH  036%=      5-min Rain = 0
KTH1 202136Z 17009G18KT 37/19 A2985 RMK A01 T03680192  RH  036%=      5-min Rain = 0
KTH1 202137Z 15010KT 37/19 A2985 RMK A01 T03680190  RH  035%=      5-min Rain = 0
KTH1 202138Z 16012KT 37/19 A2985 RMK A01 T03690193  RH  036%=      5-min Rain = 0
KTH1 202139Z 15009G14KT 37/19 A2985 RMK A01 T03690190  RH  035%=      5-min Rain = 0
KTH1 202140Z 14011KT 37/19 A2985 RMK A01 T03690191  RH  035%=      5-min Rain = 0
KTH1 202141Z 16011KT 37/19 A2985 RMK A01 T03700189  RH  035%=      5-min Rain = 0
KTH1 202142Z 17015G24KT 37/19 A2985 RMK A01 T03700190  RH  035%=      5-min Rain = 0
KTH1 202143Z 17009G14KT 37/19 A2985 RMK A01 T03700190  RH  035%=      5-min Rain = 0
KTH1 202144Z 18007KT 37/19 A2985 RMK A01 T03700191  RH  035%=      5-min Rain = 0
KTH1 202145Z 19010KT 37/19 A2985 RMK A01 T03710192  RH  035%=      5-min Rain = 0
KTH1 202146Z 19010KT 37/19 A2985 RMK A01 T03720190  RH  035%=      5-min Rain = 0
KTH1 202147Z 18010KT 37/19 A2985 RMK A01 T03710189  RH  035%=      5-min Rain = 0
KTH1 202148Z 17012KT 37/19 A2985 RMK A01 T03700190  RH  035%=      5-min Rain = 0
KTH1 202149Z 17011KT 37/19 A2985 RMK A01 T03690190  RH  035%=      5-min Rain = 0
KTH1 202150Z 16009G19KT 37/19 A2985 RMK A01 T03680191  RH  036%=      5-min Rain = 0
KTH1 202151Z 16014KT 37/19 A2985 RMK A01 T03680191  RH  036%=      5-min Rain = 0
KTH1 202152Z 15015G21KT 37/19 A2985 RMK A01 T03680189  RH  035%=      5-min Rain = 0
KTH1 202153Z 17015KT 37/19 A2985 RMK A01 T03660190  RH  036%=      5-min Rain = 0
KTH1 202154Z 15014G19KT 37/19 A2985 RMK A01 T03660190  RH  036%=      5-min Rain = 0
KTH1 202155Z 15014G19KT 37/19 A2985 RMK A01 T03650190  RH  036%=      5-min Rain = 0
KTH1 202156Z 15013KT 37/19 A2985 RMK A01 T03660189  RH  036%=      5-min Rain = 0
KTH1 202157Z 15012G20KT 37/19 A2985 RMK A01 T03670191  RH  036%=      5-min Rain = 0
KTH1 202158Z 16014KT 37/19 A2985 RMK A01 T03680188  RH  035%=      5-min Rain = 0
KTH1 202159Z 16013G18KT 37/19 A2985 RMK A01 T03680188  RH  035%=      5-min Rain = 0
KTH1 202200Z 16014KT 37/19 A2985 RMK A01 T03670188  RH  035%=      5-min Rain = 0
KTH1 202201Z 16013KT 37/19 A2985 RMK A01 T03670188  RH  035%=      5-min Rain = 0
KTH1 202202Z 16013G19KT 37/19 A2985 RMK A01 T03670187  RH  035%=      5-min Rain = 0
KTH1 202203Z 16008G13KT 37/19 A2985 RMK A01 T03670188  RH  035%=      5-min Rain = 0
KTH1 202204Z 16011KT 37/19 A2985 RMK A01 T03680190  RH  035%=      5-min Rain = 0
KTH1 202205Z 17011G17KT 37/19 A2985 RMK A01 T03690190  RH  035%=      5-min Rain = 0
KTH1 202206Z 17010KT 37/19 A2985 RMK A01 T03710187  RH  034%=      5-min Rain = 0
KTH1 202207Z 17010G15KT 37/19 A2984 RMK A01 T03700186  RH  034%=      5-min Rain = 0
KTH1 202208Z 15009KT 37/19 A2985 RMK A01 T03690188  RH  035%=      5-min Rain = 0
KTH1 202209Z 17008KT 37/19 A2984 RMK A01 T03690189  RH  035%=      5-min Rain = 0
KTH1 202210Z 18011KT 37/19 A2985 RMK A01 T03690189  RH  035%=      5-min Rain = 0
KTH1 202211Z 17013KT 37/19 A2984 RMK A01 T03700189  RH  035%=      5-min Rain = 0
KTH1 202212Z 17012KT 37/19 A2984 RMK A01 T03700187  RH  034%=      5-min Rain = 0
KTH1 202213Z 19011G16KT 37/19 A2984 RMK A01 T03690187  RH  034%=      5-min Rain = 0
KTH1 202214Z 19012KT 37/19 A2984 RMK A01 T03690186  RH  034%=      5-min Rain = 0
KTH1 202215Z 19010G16KT 37/19 A2984 RMK A01 T03690185  RH  034%=      5-min Rain = 0
KTH1 202216Z 19011G16KT 37/19 A2984 RMK A01 T03690187  RH  034%=      5-min Rain = 0
KTH1 202217Z 15010KT 37/19 A2984 RMK A01 T03690190  RH  035%=      5-min Rain = 0
KTH1 202218Z 16009KT 37/19 A2985 RMK A01 T03700191  RH  035%=      5-min Rain = 0
KTH1 202219Z 17009KT 37/19 A2984 RMK A01 T03700192  RH  035%=      5-min Rain = 0
KTH1 202220Z 17009KT 37/19 A2984 RMK A01 T03700191  RH  035%=      5-min Rain = 0
KTH1 202221Z 14012KT 37/19 A2984 RMK A01 T03700192  RH  035%=      5-min Rain = 0
KTH1 202222Z 14012KT 37/19 A2984 RMK A01 T03690189  RH  035%=      5-min Rain = 0
KTH1 202223Z 15013G21KT 37/19 A2984 RMK A01 T03680190  RH  035%=      5-min Rain = 0
KTH1 202224Z 16013G24KT 37/19 A2984 RMK A01 T03680189  RH  035%=      5-min Rain = 0
KTH1 202225Z 16009G16KT 37/19 A2984 RMK A01 T03670189  RH  035%=      5-min Rain = 0
KTH1 202226Z 18009G14KT 37/19 A2984 RMK A01 T03670188  RH  035%=      5-min Rain = 0
KTH1 202227Z 18011KT 37/19 A2984 RMK A01 T03670187  RH  035%=      5-min Rain = 0
KTH1 202228Z 17011KT 37/19 A2984 RMK A01 T03670189  RH  035%=      5-min Rain = 0
KTH1 202229Z 15012KT 37/19 A2984 RMK A01 T03670190  RH  036%=      5-min Rain = 0
KTH1 202230Z 14013G19KT 37/19 A2984 RMK A01 T03670190  RH  035%=      5-min Rain = 0
KTH1 202231Z 15014KT 37/19 A2984 RMK A01 T03670189  RH  035%=      5-min Rain = 0
KTH1 202232Z 16012KT 37/19 A2984 RMK A01 T03650188  RH  036%=      5-min Rain = 0
KTH1 202233Z 16010G16KT 37/19 A2984 RMK A01 T03650189  RH  036%=      5-min Rain = 0
KTH1 202234Z 15012KT 37/19 A2984 RMK A01 T03650189  RH  036%=      5-min Rain = 0
KTH1 202235Z 15015G20KT 37/19 A2984 RMK A01 T03670187  RH  035%=      5-min Rain = 0
KTH1 202236Z 15010KT 37/19 A2984 RMK A01 T03670188  RH  035%=      5-min Rain = 0
KTH1 202237Z 16012KT 37/19 A2984 RMK A01 T03670188  RH  035%=      5-min Rain = 0
KTH1 202238Z 15014KT 37/19 A2984 RMK A01 T03670187  RH  035%=      5-min Rain = 0
KTH1 202239Z 15014KT 37/19 A2984 RMK A01 T03670187  RH  035%=      5-min Rain = 0
KTH1 202240Z 15012KT 37/19 A2984 RMK A01 T03650187  RH  035%=      5-min Rain = 0
KTH1 202241Z 15013KT 37/19 A2984 RMK A01 T03650189  RH  036%=      5-min Rain = 0
KTH1 202242Z 15012KT 37/19 A2984 RMK A01 T03650190  RH  036%=      5-min Rain = 0
KTH1 202243Z 17012KT 37/19 A2984 RMK A01 T03660187  RH  035%=      5-min Rain = 0
KTH1 202244Z 18011KT 37/19 A2984 RMK A01 T03660187  RH  035%=      5-min Rain = 0
KTH1 202245Z 17010G15KT 36/19 A2984 RMK A01 T03640188  RH  036%=      5-min Rain = 0
KTH1 202246Z 16008G13KT 36/19 A2984 RMK A01 T03640192  RH  037%=      5-min Rain = 0
KTH1 202247Z 17011KT 37/19 A2984 RMK A01 T03660189  RH  036%=      5-min Rain = 0
KTH1 202248Z 15013G18KT 37/19 A2983 RMK A01 T03660188  RH  035%=      5-min Rain = 0
KTH1 202249Z 15013G19KT 37/19 A2983 RMK A01 T03650188  RH  036%=      5-min Rain = 0
KTH1 202250Z 16012KT 36/19 A2983 RMK A01 T03640188  RH  036%=      5-min Rain = 0
KTH1 202251Z 16013G20KT 37/19 A2983 RMK A01 T03650188  RH  036%=      5-min Rain = 0
KTH1 202252Z 14016G22KT 37/19 A2983 RMK A01 T03650187  RH  035%=      5-min Rain = 0
KTH1 202253Z 15015KT 37/19 A2983 RMK A01 T03650188  RH  035%=      5-min Rain = 0
KTH1 202254Z 15012KT 36/19 A2983 RMK A01 T03640188  RH  036%=      5-min Rain = 0
KTH1 202255Z 15011G17KT 37/19 A2983 RMK A01 T03650188  RH  036%=      5-min Rain = 0
KTH1 202256Z 16011KT 37/19 A2983 RMK A01 T03650189  RH  036%=      5-min Rain = 0
KTH1 202257Z 16016G22KT 37/19 A2983 RMK A01 T03650187  RH  035%=      5-min Rain = 0
KTH1 202258Z 16012KT 36/19 A2983 RMK A01 T03640187  RH  035%=      5-min Rain = 0
KTH1 202259Z 17012G17KT 36/19 A2983 RMK A01 T03630187  RH  036%=      5-min Rain = 0
KTH1 202300Z 18012G18KT 36/19 A2983 RMK A01 T03620186  RH  036%=      5-min Rain = 0
KTH1 202301Z 16013KT 36/19 A2983 RMK A01 T03610186  RH  036%=      5-min Rain = 0
KTH1 202302Z 16012KT 36/19 A2983 RMK A01 T03610187  RH  036%=      5-min Rain = 0
KTH1 202303Z 16009KT 36/19 A2983 RMK A01 T03610187  RH  036%=      5-min Rain = 0
KTH1 202304Z 16011G18KT 36/19 A2983 RMK A01 T03610188  RH  036%=      5-min Rain = 0
KTH1 202305Z 15015KT 36/19 A2983 RMK A01 T03620187  RH  036%=      5-min Rain = 0
KTH1 202306Z 16013KT 36/19 A2983 RMK A01 T03620187  RH  036%=      5-min Rain = 0
KTH1 202307Z 17012KT 36/19 A2983 RMK A01 T03630188  RH  036%=      5-min Rain = 0
KTH1 202308Z 16014KT 36/19 A2983 RMK A01 T03630187  RH  036%=      5-min Rain = 0
KTH1 202309Z 16015G20KT 36/19 A2983 RMK A01 T03620186  RH  036%=      5-min Rain = 0
KTH1 202310Z 16011KT 36/19 A2983 RMK A01 T03610186  RH  036%=      5-min Rain = 0
KTH1 202311Z 17012G18KT 36/19 A2983 RMK A01 T03610187  RH  036%=      5-min Rain = 0
KTH1 202312Z 15012G17KT 36/19 A2983 RMK A01 T03600187  RH  036%=      5-min Rain = 0
KTH1 202313Z 15014KT 36/19 A2983 RMK A01 T03610187  RH  036%=      5-min Rain = 0
KTH1 202314Z 15016G21KT 36/19 A2983 RMK A01 T03620186  RH  036%=      5-min Rain = 0
KTH1 202315Z 14014KT 36/19 A2983 RMK A01 T03620185  RH  035%=      5-min Rain = 0
KTH1 202316Z 15013G21KT 36/19 A2983 RMK A01 T03620187  RH  036%=      5-min Rain = 0
KTH1 202317Z 15014G21KT 36/19 A2983 RMK A01 T03630186  RH  035%=      5-min Rain = 0
KTH1 202318Z 15014KT 36/19 A2983 RMK A01 T03630187  RH  036%=      5-min Rain = 0
KTH1 202319Z 15013G19KT 36/19 A2983 RMK A01 T03630186  RH  035%=      5-min Rain = 0
KTH1 202320Z 16012G17KT 36/19 A2983 RMK A01 T03620185  RH  035%=      5-min Rain = 0
KTH1 202321Z 16011KT 36/18 A2983 RMK A01 T03610184  RH  035%=      5-min Rain = 0
KTH1 202322Z 16010KT 36/19 A2983 RMK A01 T03600186  RH  036%=      5-min Rain = 0
KTH1 202323Z 16008KT 36/19 A2983 RMK A01 T03600187  RH  036%=      5-min Rain = 0
KTH1 202324Z 15009G14KT 36/19 A2983 RMK A01 T03610188  RH  036%=      5-min Rain = 0
KTH1 202325Z 16012KT 36/19 A2982 RMK A01 T03620188  RH  036%=      5-min Rain = 0
KTH1 202326Z 16011G17KT 36/19 A2983 RMK A01 T03630189  RH  036%=      5-min Rain = 0
KTH1 202327Z 17011KT 36/19 A2983 RMK A01 T03630189  RH  036%=      5-min Rain = 0
KTH1 202328Z 15008G13KT 36/19 A2983 RMK A01 T03640188  RH  036%=      5-min Rain = 0
KTH1 202329Z 15010G15KT 36/19 A2983 RMK A01 T03640189  RH  036%=      5-min Rain = 0
KTH1 202330Z 15012KT 36/19 A2983 RMK A01 T03630187  RH  036%=      5-min Rain = 0
KTH1 202331Z 16011G18KT 36/19 A2983 RMK A01 T03630188  RH  036%=      5-min Rain = 0
KTH1 202332Z 17013G18KT 36/19 A2983 RMK A01 T03630186  RH  036%=      5-min Rain = 0
KTH1 202333Z 16010G18KT 36/19 A2983 RMK A01 T03620186  RH  036%=      5-min Rain = 0
KTH1 202334Z 16009KT 36/19 A2983 RMK A01 T03610188  RH  036%=      5-min Rain = 0
KTH1 202335Z 16010G15KT 36/19 A2983 RMK A01 T03610186  RH  036%=      5-min Rain = 0
KTH1 202336Z 16011KT 36/19 A2983 RMK A01 T03610185  RH  036%=      5-min Rain = 0
KTH1 202337Z 16009KT 36/19 A2983 RMK A01 T03600186  RH  036%=      5-min Rain = 0
KTH1 202338Z 15010G16KT 36/19 A2982 RMK A01 T03610187  RH  036%=      5-min Rain = 0
KTH1 202339Z 15014G19KT 36/19 A2983 RMK A01 T03620186  RH  036%=      5-min Rain = 0
KTH1 202340Z 17012G17KT 36/18 A2983 RMK A01 T03620184  RH  035%=      5-min Rain = 0
KTH1 202341Z 17010G17KT 36/18 A2983 RMK A01 T03620184  RH  035%=      5-min Rain = 0
KTH1 202342Z 17009KT 36/19 A2983 RMK A01 T03610185  RH  036%=      5-min Rain = 0
KTH1 202343Z 16009KT 36/19 A2983 RMK A01 T03600185  RH  036%=      5-min Rain = 0
KTH1 202344Z 17008G13KT 36/19 A2983 RMK A01 T03600185  RH  036%=      5-min Rain = 0
KTH1 202345Z 16009KT 36/19 A2983 RMK A01 T03600186  RH  036%=      5-min Rain = 0
KTH1 202346Z 15011KT 36/19 A2983 RMK A01 T03600186  RH  036%=      5-min Rain = 0
KTH1 202347Z 16008KT 36/19 A2983 RMK A01 T03600186  RH  036%=      5-min Rain = 0
KTH1 202348Z 17007KT 36/19 A2982 RMK A01 T03610188  RH  036%=      5-min Rain = 0
KTH1 202349Z 16010KT 36/19 A2982 RMK A01 T03620188  RH  036%=      5-min Rain = 0
KTH1 202350Z 15014G19KT 36/19 A2982 RMK A01 T03620185  RH  035%=      5-min Rain = 0
KTH1 202351Z 15013G18KT 36/18 A2982 RMK A01 T03610182  RH  035%=      5-min Rain = 0
KTH1 202352Z 16011G16KT 36/18 A2982 RMK A01 T03590183  RH  035%=      5-min Rain = 0
KTH1 202353Z 15012G17KT 36/18 A2982 RMK A01 T03590184  RH  036%=      5-min Rain = 0
KTH1 202354Z 15013G19KT 36/18 A2982 RMK A01 T03590182  RH  035%=      5-min Rain = 0
KTH1 202355Z 16009G15KT 36/18 A2982 RMK A01 T03590183  RH  036%=      5-min Rain = 0
KTH1 202356Z 16009G19KT 36/19 A2982 RMK A01 T03580185  RH  036%=      5-min Rain = 0
KTH1 202357Z 16010G15KT 36/18 A2982 RMK A01 T03580184  RH  036%=      5-min Rain = 0
KTH1 202358Z 16014KT 36/18 A2982 RMK A01 T03580182  RH  036%=      5-min Rain = 0
KTH1 202359Z 16012G19KT 36/18 A2982 RMK A01 T03580181  RH  035%=      5-min Rain = 0
KTH1 210000Z 16009KT 36/18 A2982 RMK A01 T03570182  RH  036%=      5-min Rain = 0
KTH1 210001Z 16009G14KT 36/18 A2982 RMK A01 T03580183  RH  036%=      5-min Rain = 0
KTH1 210002Z 15009KT 36/18 A2982 RMK A01 T03580183  RH  036%=      5-min Rain = 0
KTH1 210003Z 16014KT 36/18 A2982 RMK A01 T03580182  RH  035%=      5-min Rain = 0
KTH1 210004Z 16014KT 36/18 A2982 RMK A01 T03570181  RH  035%=      5-min Rain = 0
KTH1 210005Z 15011G16KT 36/18 A2982 RMK A01 T03570180  RH  035%=      5-min Rain = 0
KTH1 210006Z 16011KT 36/18 A2982 RMK A01 T03570181  RH  036%=      5-min Rain = 0
KTH1 210007Z 16012G17KT 36/18 A2982 RMK A01 T03560181  RH  036%=      5-min Rain = 0
KTH1 210008Z 16010KT 36/18 A2982 RMK A01 T03560182  RH  036%=      5-min Rain = 0
KTH1 210009Z 15011G16KT 36/18 A2982 RMK A01 T03560183  RH  036%=      5-min Rain = 0
KTH1 210010Z 15011KT 36/18 A2982 RMK A01 T03560183  RH  036%=      5-min Rain = 0
KTH1 210011Z 15012G18KT 36/18 A2982 RMK A01 T03560183  RH  036%=      5-min Rain = 0
KTH1 210012Z 16011G16KT 36/18 A2982 RMK A01 T03560182  RH  036%=      5-min Rain = 0
KTH1 210013Z 16013G18KT 36/18 A2982 RMK A01 T03560181  RH  036%=      5-min Rain = 0
KTH1 210014Z 16012G17KT 36/18 A2982 RMK A01 T03560180  RH  036%=      5-min Rain = 0
KTH1 210015Z 16015KT 36/18 A2982 RMK A01 T03550180  RH  036%=      5-min Rain = 0
KTH1 210016Z 15014KT 36/18 A2982 RMK A01 T03550180  RH  036%=      5-min Rain = 0
KTH1 210017Z 16011G20KT 36/18 A2982 RMK A01 T03550181  RH  036%=      5-min Rain = 0
KTH1 210018Z 16011KT 35/18 A2982 RMK A01 T03540182  RH  036%=      5-min Rain = 0
KTH1 210019Z 15012KT 36/18 A2982 RMK A01 T03550182  RH  036%=      5-min Rain = 0
KTH1 210020Z 16011G17KT 35/18 A2982 RMK A01 T03540182  RH  036%=      5-min Rain = 0
KTH1 210021Z 15012KT 35/18 A2982 RMK A01 T03540183  RH  036%=      5-min Rain = 0
KTH1 210022Z 15011KT 35/18 A2982 RMK A01 T03540183  RH  036%=      5-min Rain = 0
KTH1 210023Z 15011KT 35/18 A2982 RMK A01 T03540182  RH  036%=      5-min Rain = 0
KTH1 210024Z 16011KT 35/18 A2982 RMK A01 T03540183  RH  037%=      5-min Rain = 0
KTH1 210025Z 15010KT 35/18 A2983 RMK A01 T03540183  RH  037%=      5-min Rain = 0
KTH1 210026Z 14008KT 35/18 A2983 RMK A01 T03530183  RH  037%=      5-min Rain = 0
KTH1 210027Z 15010KT 35/19 A2983 RMK A01 T03530185  RH  037%=      5-min Rain = 0
KTH1 210028Z 15010KT 35/18 A2983 RMK A01 T03530184  RH  037%=      5-min Rain = 0
KTH1 210029Z 14012KT 35/18 A2983 RMK A01 T03530184  RH  037%=      5-min Rain = 0
KTH1 210030Z 15009G14KT 35/18 A2983 RMK A01 T03530182  RH  037%=      5-min Rain = 0
KTH1 210031Z 15010KT 35/18 A2983 RMK A01 T03530183  RH  037%=      5-min Rain = 0
KTH1 210032Z 16009KT 35/18 A2983 RMK A01 T03520183  RH  037%=      5-min Rain = 0
KTH1 210033Z 16010KT 35/18 A2983 RMK A01 T03520183  RH  037%=      5-min Rain = 0
KTH1 210034Z 15009KT 35/18 A2983 RMK A01 T03510184  RH  037%=      5-min Rain = 0
KTH1 210035Z 15009KT 35/18 A2983 RMK A01 T03510184  RH  037%=      5-min Rain = 0
KTH1 210036Z 16011G16KT 35/18 A2983 RMK A01 T03510184  RH  037%=      5-min Rain = 0
KTH1 210037Z 15010KT 35/18 A2983 RMK A01 T03510183  RH  037%=      5-min Rain = 0
KTH1 210038Z 15010KT 35/19 A2983 RMK A01 T03510185  RH  038%=      5-min Rain = 0
KTH1 210039Z 15008KT 35/19 A2983 RMK A01 T03500185  RH  038%=      5-min Rain = 0
KTH1 210040Z 15008KT 35/19 A2983 RMK A01 T03500187  RH  038%=      5-min Rain = 0
KTH1 210041Z 14012G18KT 35/19 A2983 RMK A01 T03500188  RH  039%=      5-min Rain = 0
KTH1 210042Z 14011KT 35/19 A2983 RMK A01 T03490188  RH  039%=      5-min Rain = 0
KTH1 210043Z 14010KT 35/19 A2983 RMK A01 T03490188  RH  039%=      5-min Rain = 0
KTH1 210044Z 14009KT 35/19 A2983 RMK A01 T03480189  RH  039%=      5-min Rain = 0
KTH1 210045Z 14009KT 35/19 A2983 RMK A01 T03470189  RH  039%=      5-min Rain = 0
KTH1 210046Z 14009KT 35/19 A2983 RMK A01 T03470189  RH  039%=      5-min Rain = 0
KTH1 210047Z 15012KT 35/19 A2983 RMK A01 T03470188  RH  039%=      5-min Rain = 0
KTH1 210048Z 14011KT 35/19 A2983 RMK A01 T03460188  RH  039%=      5-min Rain = 0
KTH1 210049Z 14009KT 35/19 A2983 RMK A01 T03460188  RH  039%=      5-min Rain = 0
KTH1 210050Z 14007G13KT 35/19 A2983 RMK A01 T03460189  RH  040%=      5-min Rain = 0
KTH1 210051Z 15010G15KT 35/19 A2983 RMK A01 T03450189  RH  040%=      5-min Rain = 0
KTH1 210052Z 14012KT 35/19 A2983 RMK A01 T03450188  RH  040%=      5-min Rain = 0
KTH1 210053Z 15011KT 34/19 A2983 RMK A01 T03440188  RH  040%=      5-min Rain = 0
KTH1 210054Z 14009KT 34/19 A2983 RMK A01 T03440189  RH  040%=      5-min Rain = 0
KTH1 210055Z 14009G14KT 34/19 A2983 RMK A01 T03430189  RH  040%=      5-min Rain = 0
KTH1 210056Z 14010KT 34/19 A2983 RMK A01 T03430189  RH  040%=      5-min Rain = 0
KTH1 210057Z 14009KT 34/19 A2983 RMK A01 T03420189  RH  040%=      5-min Rain = 0
KTH1 210058Z 15010KT 34/19 A2983 RMK A01 T03410189  RH  041%=      5-min Rain = 0
KTH1 210059Z 14010G15KT 34/19 A2983 RMK A01 T03410188  RH  041%=      5-min Rain = 0
KTH1 210100Z 14009KT 34/19 A2983 RMK A01 T03410189  RH  041%=      5-min Rain = 0
KTH1 210101Z 14012KT 34/19 A2983 RMK A01 T03410188  RH  041%=      5-min Rain = 0
KTH1 210102Z 14010KT 34/19 A2983 RMK A01 T03400187  RH  041%=      5-min Rain = 0
KTH1 210103Z 15008KT 34/19 A2983 RMK A01 T03400189  RH  041%=      5-min Rain = 0
KTH1 210104Z 15010G16KT 34/19 A2983 RMK A01 T03390188  RH  041%=      5-min Rain = 0
KTH1 210105Z 15010G15KT 34/19 A2983 RMK A01 T03390187  RH  041%=      5-min Rain = 0
KTH1 210106Z 15008KT 34/19 A2983 RMK A01 T03390188  RH  041%=      5-min Rain = 0
KTH1 210107Z 14010KT 34/19 A2983 RMK A01 T03380188  RH  041%=      5-min Rain = 0
KTH1 210108Z 14009KT 34/19 A2983 RMK A01 T03380187  RH  041%=      5-min Rain = 0
KTH1 210109Z 14009KT 34/19 A2983 RMK A01 T03380187  RH  041%=      5-min Rain = 0
KTH1 210110Z 14008KT 34/19 A2983 RMK A01 T03370187  RH  041%=      5-min Rain = 0
KTH1 210111Z 14010KT 34/19 A2983 RMK A01 T03370188  RH  041%=      5-min Rain = 0
KTH1 210112Z 14007KT 34/19 A2983 RMK A01 T03360188  RH  041%=      5-min Rain = 0
KTH1 210113Z 14010KT 34/19 A2983 RMK A01 T03360187  RH  041%=      5-min Rain = 0
KTH1 210114Z 14009KT 34/19 A2983 RMK A01 T03350186  RH  041%=      5-min Rain = 0
KTH1 210115Z 14009KT 34/19 A2983 RMK A01 T03350187  RH  041%=      5-min Rain = 0
KTH1 210116Z 14009KT 34/19 A2983 RMK A01 T03350186  RH  041%=      5-min Rain = 0
KTH1 210117Z 14009KT 33/19 A2983 RMK A01 T03340185  RH  041%=      5-min Rain = 0
KTH1 210118Z 14008KT 33/19 A2983 RMK A01 T03340186  RH  042%=      5-min Rain = 0
KTH1 210119Z 14008G13KT 33/19 A2983 RMK A01 T03340186  RH  042%=      5-min Rain = 0
KTH1 210120Z 15011KT 33/19 A2983 RMK A01 T03330186  RH  042%=      5-min Rain = 0
KTH1 210121Z 14009KT 33/19 A2983 RMK A01 T03320185  RH  042%=      5-min Rain = 0
KTH1 210122Z 14008KT 33/19 A2983 RMK A01 T03320186  RH  042%=      5-min Rain = 0
KTH1 210123Z 14008KT 33/19 A2983 RMK A01 T03320186  RH  042%=      5-min Rain = 0
KTH1 210124Z 14008KT 33/19 A2983 RMK A01 T03310185  RH  042%=      5-min Rain = 0
KTH1 210125Z 14008KT 33/19 A2983 RMK A01 T03310186  RH  042%=      5-min Rain = 0
KTH1 210126Z 14008KT 33/19 A2983 RMK A01 T03300185  RH  042%=      5-min Rain = 0
KTH1 210127Z 14007KT 33/19 A2983 RMK A01 T03290186  RH  043%=      5-min Rain = 0
KTH1 210128Z 14007KT 33/19 A2983 RMK A01 T03290186  RH  043%=      5-min Rain = 0
KTH1 210129Z 14009KT 33/19 A2983 RMK A01 T03280186  RH  043%=      5-min Rain = 0
KTH1 210130Z 14009KT 33/19 A2983 RMK A01 T03280185  RH  043%=      5-min Rain = 0
KTH1 210131Z 14009KT 33/19 A2983 RMK A01 T03270185  RH  043%=      5-min Rain = 0
KTH1 210132Z 14009KT 33/19 A2983 RMK A01 T03270185  RH  043%=      5-min Rain = 0
KTH1 210133Z 14007KT 33/19 A2983 RMK A01 T03270185  RH  043%=      5-min Rain = 0
KTH1 210134Z 14007KT 33/19 A2983 RMK A01 T03260186  RH  043%=      5-min Rain = 0
KTH1 210135Z 14008KT 33/19 A2983 RMK A01 T03250186  RH  044%=      5-min Rain = 0
KTH1 210136Z 14009KT 32/19 A2983 RMK A01 T03240185  RH  044%=      5-min Rain = 0
KTH1 210137Z 14007KT 32/19 A2983 RMK A01 T03240185  RH  044%=      5-min Rain = 0
KTH1 210138Z 14008KT 32/19 A2983 RMK A01 T03240185  RH  044%=      5-min Rain = 0
KTH1 210139Z 14007KT 32/19 A2983 RMK A01 T03230185  RH  044%=      5-min Rain = 0
KTH1 210140Z 14008KT 32/19 A2983 RMK A01 T03230185  RH  044%=      5-min Rain = 0
KTH1 210141Z 13009KT 32/19 A2983 RMK A01 T03220185  RH  044%=      5-min Rain = 0
KTH1 210142Z 14007KT 32/18 A2983 RMK A01 T03220184  RH  044%=      5-min Rain = 0
KTH1 210143Z 14007KT 32/19 A2983 RMK A01 T03220185  RH  044%=      5-min Rain = 0
KTH1 210144Z 14007KT 32/18 A2984 RMK A01 T03220184  RH  044%=      5-min Rain = 0
KTH1 210145Z 13006KT 32/18 A2984 RMK A01 T03210184  RH  044%=      5-min Rain = 0
KTH1 210146Z 13007KT 32/18 A2984 RMK A01 T03210184  RH  044%=      5-min Rain = 0
KTH1 210147Z 13007KT 32/18 A2984 RMK A01 T03200184  RH  044%=      5-min Rain = 0
KTH1 210148Z 14007KT 32/18 A2984 RMK A01 T03190184  RH  045%=      5-min Rain = 0
KTH1 210149Z 14007KT 32/18 A2984 RMK A01 T03190184  RH  045%=      5-min Rain = 0
KTH1 210150Z 14007KT 32/18 A2984 RMK A01 T03190184  RH  045%=      5-min Rain = 0
KTH1 210151Z 14009KT 32/18 A2984 RMK A01 T03180184  RH  045%=      5-min Rain = 0
KTH1 210152Z 14007KT 32/18 A2984 RMK A01 T03180184  RH  045%=      5-min Rain = 0
KTH1 210153Z 14007KT 32/18 A2984 RMK A01 T03170184  RH  045%=      5-min Rain = 0
KTH1 210154Z 14006KT 32/18 A2984 RMK A01 T03170184  RH  045%=      5-min Rain = 0
KTH1 210155Z 13006KT 32/18 A2984 RMK A01 T03160184  RH  045%=      5-min Rain = 0
KTH1 210156Z 14007KT 32/18 A2984 RMK A01 T03160184  RH  046%=      5-min Rain = 0
KTH1 210157Z 13006KT 32/18 A2984 RMK A01 T03150184  RH  046%=      5-min Rain = 0
KTH1 210158Z 14006KT 31/18 A2984 RMK A01 T03140184  RH  046%=      5-min Rain = 0
KTH1 210159Z 14007KT 31/18 A2984 RMK A01 T03130184  RH  046%=      5-min Rain = 0
KTH1 210200Z 13006KT 31/18 A2984 RMK A01 T03130184  RH  046%=      5-min Rain = 0
KTH1 210201Z 13007KT 31/18 A2984 RMK A01 T03120184  RH  046%=      5-min Rain = 0
KTH1 210202Z 14007KT 31/18 A2984 RMK A01 T03120184  RH  047%=      5-min Rain = 0
KTH1 210203Z 14006KT 31/18 A2984 RMK A01 T03120184  RH  047%=      5-min Rain = 0
KTH1 210204Z 13007KT 31/18 A2984 RMK A01 T03120184  RH  047%=      5-min Rain = 0
KTH1 210205Z 13006KT 31/18 A2984 RMK A01 T03120184  RH  047%=      5-min Rain = 0
KTH1 210206Z 13006KT 31/18 A2984 RMK A01 T03110184  RH  047%=      5-min Rain = 0
KTH1 210207Z 14006KT 31/18 A2984 RMK A01 T03100184  RH  047%=      5-min Rain = 0
KTH1 210208Z 14005KT 31/18 A2984 RMK A01 T03090184  RH  047%=      5-min Rain = 0
KTH1 210209Z 14006KT 31/18 A2984 RMK A01 T03090184  RH  047%=      5-min Rain = 0
KTH1 210210Z 14006KT 31/18 A2984 RMK A01 T03080183  RH  047%=      5-min Rain = 0
KTH1 210211Z 14006KT 31/18 A2984 RMK A01 T03070183  RH  048%=      5-min Rain = 0
KTH1 210212Z 14006KT 31/18 A2984 RMK A01 T03070184  RH  048%=      5-min Rain = 0
KTH1 210213Z 13006KT 31/18 A2984 RMK A01 T03070183  RH  048%=      5-min Rain = 0
KTH1 210214Z 14007KT 31/18 A2984 RMK A01 T03060183  RH  048%=      5-min Rain = 0
KTH1 210215Z 14006KT 31/18 A2984 RMK A01 T03060183  RH  048%=      5-min Rain = 0
KTH1 210216Z 13006KT 31/18 A2984 RMK A01 T03060183  RH  048%=      5-min Rain = 0
KTH1 210217Z 14006KT 31/18 A2984 RMK A01 T03050183  RH  048%=      5-min Rain = 0
KTH1 210218Z 14006KT 31/18 A2984 RMK A01 T03050183  RH  048%=      5-min Rain = 0
KTH1 210219Z 14006KT 30/18 A2984 RMK A01 T03040183  RH  048%=      5-min Rain = 0
KTH1 210220Z 13006KT 30/18 A2984 RMK A01 T03040183  RH  049%=      5-min Rain = 0
KTH1 210221Z 13006KT 30/18 A2984 RMK A01 T03030183  RH  049%=      5-min Rain = 0
KTH1 210222Z 13006KT 30/18 A2984 RMK A01 T03020183  RH  049%=      5-min Rain = 0
KTH1 210223Z 14007KT 30/18 A2984 RMK A01 T03010183  RH  049%=      5-min Rain = 0
KTH1 210224Z 14006KT 30/18 A2984 RMK A01 T03010183  RH  049%=      5-min Rain = 0
KTH1 210225Z 14006KT 30/18 A2984 RMK A01 T03010183  RH  049%=      5-min Rain = 0
KTH1 210226Z 14007KT 30/18 A2984 RMK A01 T03010183  RH  049%=      5-min Rain = 0
KTH1 210227Z 13006KT 30/18 A2984 RMK A01 T03000183  RH  049%=      5-min Rain = 0
KTH1 210228Z 13006KT 30/18 A2984 RMK A01 T03000183  RH  049%=      5-min Rain = 0
KTH1 210229Z 14006KT 30/18 A2984 RMK A01 T03000183  RH  050%=      5-min Rain = 0
KTH1 210230Z 13007KT 30/18 A2984 RMK A01 T03000183  RH  050%=      5-min Rain = 0
KTH1 210231Z 14006KT 30/18 A2984 RMK A01 T02990183  RH  050%=      5-min Rain = 0
KTH1 210232Z 13007KT 30/18 A2984 RMK A01 T02990183  RH  050%=      5-min Rain = 0
KTH1 210233Z 14008KT 30/18 A2984 RMK A01 T02990183  RH  050%=      5-min Rain = 0
KTH1 210234Z 13008KT 30/18 A2984 RMK A01 T02990183  RH  050%=      5-min Rain = 0
KTH1 210235Z 14008KT 30/18 A2984 RMK A01 T02990184  RH  050%=      5-min Rain = 0
KTH1 210236Z 14009KT 30/18 A2984 RMK A01 T02990184  RH  050%=      5-min Rain = 0
KTH1 210237Z 14007KT 30/18 A2984 RMK A01 T02990184  RH  050%=      5-min Rain = 0
KTH1 210238Z 14009KT 30/18 A2984 RMK A01 T02990184  RH  050%=      5-min Rain = 0
KTH1 210239Z 14011KT 30/18 A2984 RMK A01 T03000184  RH  050%=      5-min Rain = 0
KTH1 210240Z 14009KT 30/19 A2984 RMK A01 T03000185  RH  050%=      5-min Rain = 0
KTH1 210241Z 14011KT 30/19 A2984 RMK A01 T03000185  RH  050%=      5-min Rain = 0
KTH1 210242Z 14010KT 30/19 A2984 RMK A01 T03010186  RH  050%=      5-min Rain = 0
KTH1 210243Z 14010KT 30/19 A2984 RMK A01 T03010186  RH  050%=      5-min Rain = 0
KTH1 210244Z 13008KT 30/19 A2984 RMK A01 T03010186  RH  050%=      5-min Rain = 0
KTH1 210245Z 14009KT 30/19 A2985 RMK A01 T03010186  RH  050%=      5-min Rain = 0
KTH1 210246Z 14009KT 30/19 A2985 RMK A01 T03010187  RH  050%=      5-min Rain = 0
KTH1 210247Z 14010KT 30/19 A2985 RMK A01 T03010187  RH  050%=      5-min Rain = 0
KTH1 210248Z 14009KT 30/19 A2985 RMK A01 T03010187  RH  050%=      5-min Rain = 0
KTH1 210249Z 14008KT 30/19 A2985 RMK A01 T03010187  RH  051%=      5-min Rain = 0
KTH1 210250Z 14008KT 30/19 A2985 RMK A01 T03000187  RH  050%=      5-min Rain = 0
KTH1 210251Z 14007KT 30/19 A2985 RMK A01 T03010187  RH  051%=      5-min Rain = 0
KTH1 210252Z 14009KT 30/19 A2985 RMK A01 T03010187  RH  051%=      5-min Rain = 0
KTH1 210253Z 14009KT 30/19 A2985 RMK A01 T03010187  RH  051%=      5-min Rain = 0
KTH1 210254Z 14010KT 30/19 A2985 RMK A01 T03010187  RH  051%=      5-min Rain = 0
KTH1 210255Z 14009KT 30/19 A2985 RMK A01 T03000187  RH  050%=      5-min Rain = 0
KTH1 210256Z 14009KT 30/19 A2985 RMK A01 T03010187  RH  050%=      5-min Rain = 0
KTH1 210257Z 14008KT 30/19 A2985 RMK A01 T03010187  RH  050%=      5-min Rain = 0
KTH1 210258Z 14012KT 30/19 A2985 RMK A01 T03010187  RH  050%=      5-min Rain = 0
KTH1 210259Z 14009KT 30/19 A2985 RMK A01 T03010187  RH  050%=      5-min Rain = 0
KTH1 210300Z 14009KT 30/19 A2985 RMK A01 T03010187  RH  050%=      5-min Rain = 0
KTH1 210301Z 14009KT 30/19 A2985 RMK A01 T03010187  RH  050%=      5-min Rain = 0
KTH1 210302Z 14010KT 30/19 A2985 RMK A01 T03010186  RH  050%=      5-min Rain = 0
KTH1 210303Z 14010KT 30/19 A2985 RMK A01 T03020186  RH  050%=      5-min Rain = 0
KTH1 210304Z 14010G15KT 30/19 A2985 RMK A01 T03020187  RH  050%=      5-min Rain = 0
KTH1 210305Z 14009KT 30/19 A2985 RMK A01 T03020186  RH  050%=      5-min Rain = 0
KTH1 210306Z 14009KT 30/19 A2985 RMK A01 T03020186  RH  050%=      5-min Rain = 0
KTH1 210307Z 14009G14KT 30/19 A2985 RMK A01 T03020186  RH  050%=      5-min Rain = 0
KTH1 210308Z 14009KT 30/19 A2985 RMK A01 T03030187  RH  050%=      5-min Rain = 0
KTH1 210309Z 14008KT 30/19 A2985 RMK A01 T03020187  RH  050%=      5-min Rain = 0
KTH1 210310Z 14008KT 30/19 A2986 RMK A01 T03020187  RH  050%=      5-min Rain = 0
KTH1 210311Z 14009KT 30/19 A2986 RMK A01 T03010187  RH  050%=      5-min Rain = 0
KTH1 210312Z 14008KT 30/19 A2986 RMK A01 T03010186  RH  050%=      5-min Rain = 0
KTH1 210313Z 14009KT 30/19 A2986 RMK A01 T03010186  RH  050%=      5-min Rain = 0
KTH1 210314Z 14010KT 30/19 A2986 RMK A01 T03010186  RH  050%=      5-min Rain = 0
KTH1 210315Z 14010KT 30/19 A2986 RMK A01 T03000186  RH  050%=      5-min Rain = 0
KTH1 210316Z 14008KT 30/19 A2986 RMK A01 T03000186  RH  050%=      5-min Rain = 0
KTH1 210317Z 14008KT 30/19 A2986 RMK A01 T03000186  RH  050%=      5-min Rain = 0
KTH1 210318Z 14007KT 30/19 A2986 RMK A01 T03000186  RH  050%=      5-min Rain = 0
KTH1 210319Z 14010KT 30/19 A2986 RMK A01 T03000186  RH  051%=      5-min Rain = 0
KTH1 210320Z 14008KT 30/19 A2986 RMK A01 T02990186  RH  051%=      5-min Rain = 0
KTH1 210321Z 14009KT 30/19 A2986 RMK A01 T02990186  RH  051%=      5-min Rain = 0
KTH1 210322Z 14009KT 30/19 A2986 RMK A01 T02990186  RH  051%=      5-min Rain = 0
KTH1 210323Z 14007KT 30/19 A2986 RMK A01 T02990186  RH  051%=      5-min Rain = 0
KTH1 210324Z 14008KT 30/19 A2986 RMK A01 T02980187  RH  051%=      5-min Rain = 0
KTH1 210325Z 14010KT 30/19 A2986 RMK A01 T02980186  RH  051%=      5-min Rain = 0
KTH1 210326Z 14010KT 30/19 A2986 RMK A01 T02980186  RH  051%=      5-min Rain = 0
KTH1 210327Z 14008G13KT 30/19 A2986 RMK A01 T02970186  RH  051%=      5-min Rain = 0
KTH1 210328Z 14009KT 30/19 A2986 RMK A01 T02970186  RH  051%=      5-min Rain = 0
KTH1 210329Z 14007KT 30/19 A2986 RMK A01 T02980187  RH  051%=      5-min Rain = 0
KTH1 210330Z 13008KT 30/19 A2986 RMK A01 T02970186  RH  051%=      5-min Rain = 0
KTH1 210331Z 14009KT 30/19 A2986 RMK A01 T02960186  RH  051%=      5-min Rain = 0
KTH1 210332Z 14008KT 30/19 A2986 RMK A01 T02960186  RH  052%=      5-min Rain = 0
KTH1 210333Z 14008KT 30/19 A2987 RMK A01 T02960186  RH  052%=      5-min Rain = 0
KTH1 210334Z 14009KT 30/19 A2987 RMK A01 T02960186  RH  052%=      5-min Rain = 0
KTH1 210335Z 14009KT 30/19 A2987 RMK A01 T02960186  RH  052%=      5-min Rain = 0
KTH1 210336Z 14007KT 30/19 A2987 RMK A01 T02960185  RH  051%=      5-min Rain = 0
KTH1 210337Z 14009KT 30/19 A2987 RMK A01 T02960186  RH  051%=      5-min Rain = 0
KTH1 210338Z 14009KT 30/19 A2987 RMK A01 T02960186  RH  052%=      5-min Rain = 0
KTH1 210339Z 14008KT 30/19 A2987 RMK A01 T02960186  RH  052%=      5-min Rain = 0
KTH1 210340Z 14008KT 30/19 A2987 RMK A01 T02950186  RH  052%=      5-min Rain = 0
KTH1 210341Z 14008KT 30/19 A2987 RMK A01 T02950186  RH  052%=      5-min Rain = 0
KTH1 210342Z 13007G12KT 30/19 A2987 RMK A01 T02950186  RH  052%=      5-min Rain = 0
KTH1 210343Z 14010KT 29/19 A2987 RMK A01 T02940186  RH  052%=      5-min Rain = 0
KTH1 210344Z 14009KT 29/19 A2987 RMK A01 T02940186  RH  052%=      5-min Rain = 0
KTH1 210345Z 14008KT 29/19 A2987 RMK A01 T02930186  RH  052%=      5-min Rain = 0
KTH1 210346Z 14009KT 29/19 A2987 RMK A01 T02930185  RH  052%=      5-min Rain = 0
KTH1 210347Z 14009KT 29/19 A2987 RMK A01 T02930185  RH  052%=      5-min Rain = 0
KTH1 210348Z 15007KT 29/19 A2987 RMK A01 T02930185  RH  052%=      5-min Rain = 0
KTH1 210349Z 14007KT 29/19 A2987 RMK A01 T02930185  RH  052%=      5-min Rain = 0
KTH1 210350Z 14009KT 29/19 A2987 RMK A01 T02930186  RH  053%=      5-min Rain = 0
KTH1 210351Z 14008KT 29/19 A2987 RMK A01 T02920186  RH  053%=      5-min Rain = 0
KTH1 210352Z 14008KT 29/19 A2987 RMK A01 T02920185  RH  053%=      5-min Rain = 0
KTH1 210353Z 14007KT 29/19 A2987 RMK A01 T02910186  RH  053%=      5-min Rain = 0
KTH1 210354Z 14008KT 29/19 A2987 RMK A01 T02910186  RH  053%=      5-min Rain = 0
KTH1 210355Z 14008KT 29/19 A2987 RMK A01 T02910186  RH  053%=      5-min Rain = 0
KTH1 210356Z 14007KT 29/19 A2987 RMK A01 T02910186  RH  053%=      5-min Rain = 0
KTH1 210357Z 14008KT 29/19 A2987 RMK A01 T02900186  RH  053%=      5-min Rain = 0
KTH1 210358Z 14007KT 29/19 A2987 RMK A01 T02900186  RH  054%=      5-min Rain = 0
KTH1 210359Z 14005KT 29/19 A2987 RMK A01 T02890186  RH  054%=      5-min Rain = 0
KTH1 210400Z 14008KT 29/19 A2987 RMK A01 T02880186  RH  054%=      5-min Rain = 0
KTH1 210401Z 14008KT 29/19 A2987 RMK A01 T02880186  RH  054%=      5-min Rain = 0
KTH1 210402Z 14008KT 29/19 A2987 RMK A01 T02870186  RH  054%=      5-min Rain = 0
KTH1 210403Z 14008KT 29/19 A2987 RMK A01 T02870186  RH  054%=      5-min Rain = 0
KTH1 210404Z 14007KT 29/19 A2987 RMK A01 T02870186  RH  054%=      5-min Rain = 0
KTH1 210405Z 14007KT 29/19 A2987 RMK A01 T02870186  RH  054%=      5-min Rain = 0
KTH1 210406Z 14007KT 29/19 A2987 RMK A01 T02870186  RH  055%=      5-min Rain = 0
KTH1 210407Z 14007KT 29/19 A2987 RMK A01 T02860187  RH  055%=      5-min Rain = 0
KTH1 210408Z 14007G12KT 29/19 A2987 RMK A01 T02850186  RH  055%=      5-min Rain = 0
KTH1 210409Z 13008KT 29/19 A2987 RMK A01 T02850187  RH  055%=      5-min Rain = 0
KTH1 210410Z 14009KT 29/19 A2987 RMK A01 T02850187  RH  055%=      5-min Rain = 0
KTH1 210411Z 14007KT 29/19 A2987 RMK A01 T02850187  RH  055%=      5-min Rain = 0
KTH1 210412Z 14007KT 29/19 A2987 RMK A01 T02850187  RH  055%=      5-min Rain = 0
KTH1 210413Z 14009KT 29/19 A2987 RMK A01 T02850187  RH  055%=      5-min Rain = 0
KTH1 210414Z 13007KT 29/19 A2987 RMK A01 T02850186  RH  055%=      5-min Rain = 0
KTH1 210415Z 14007KT 29/19 A2987 RMK A01 T02850187  RH  055%=      5-min Rain = 0
KTH1 210416Z 14009KT 29/19 A2987 RMK A01 T02850187  RH  055%=      5-min Rain = 0
KTH1 210417Z 14007KT 28/19 A2987 RMK A01 T02840187  RH  056%=      5-min Rain = 0
KTH1 210418Z 14009KT 28/19 A2987 RMK A01 T02840187  RH  056%=      5-min Rain = 0
KTH1 210419Z 14008KT 28/19 A2987 RMK A01 T02840187  RH  056%=      5-min Rain = 0
KTH1 210420Z 14009KT 28/19 A2987 RMK A01 T02840187  RH  056%=      5-min Rain = 0
KTH1 210421Z 14007KT 28/19 A2987 RMK A01 T02840188  RH  056%=      5-min Rain = 0
KTH1 210422Z 14008KT 28/19 A2987 RMK A01 T02830187  RH  056%=      5-min Rain = 0
KTH1 210423Z 14008KT 28/19 A2987 RMK A01 T02830187  RH  056%=      5-min Rain = 0
KTH1 210424Z 14008KT 28/19 A2987 RMK A01 T02830187  RH  056%=      5-min Rain = 0
KTH1 210425Z 14007KT 28/19 A2987 RMK A01 T02830187  RH  056%=      5-min Rain = 0
KTH1 210426Z 14009KT 28/19 A2987 RMK A01 T02820187  RH  056%=      5-min Rain = 0
KTH1 210427Z 14009KT 28/19 A2987 RMK A01 T02820187  RH  056%=      5-min Rain = 0
KTH1 210428Z 14008KT 28/19 A2987 RMK A01 T02820187  RH  056%=      5-min Rain = 0
KTH1 210429Z 15009KT 28/19 A2987 RMK A01 T02820187  RH  056%=      5-min Rain = 0
KTH1 210430Z 14009KT 28/19 A2987 RMK A01 T02830187  RH  056%=      5-min Rain = 0
KTH1 210431Z 15008KT 28/19 A2988 RMK A01 T02830187  RH  056%=      5-min Rain = 0
KTH1 210432Z 15008KT 28/19 A2988 RMK A01 T02830187  RH  056%=      5-min Rain = 0
KTH1 210433Z 15008KT 28/19 A2988 RMK A01 T02830187  RH  056%=      5-min Rain = 0
KTH1 210434Z 15010KT 28/19 A2988 RMK A01 T02830187  RH  056%=      5-min Rain = 0
KTH1 210435Z 14009KT 28/19 A2988 RMK A01 T02830187  RH  056%=      5-min Rain = 0
KTH1 210436Z 15008KT 28/19 A2988 RMK A01 T02830187  RH  056%=      5-min Rain = 0
KTH1 210437Z 14008KT 28/19 A2988 RMK A01 T02830188  RH  056%=      5-min Rain = 0
KTH1 210438Z 14008KT 28/19 A2988 RMK A01 T02830188  RH  056%=      5-min Rain = 0
KTH1 210439Z 15008KT 28/19 A2988 RMK A01 T02820187  RH  056%=      5-min Rain = 0
KTH1 210440Z 14009KT 28/19 A2988 RMK A01 T02820188  RH  056%=      5-min Rain = 0
KTH1 210441Z 15009KT 28/19 A2988 RMK A01 T02820187  RH  056%=      5-min Rain = 0
KTH1 210442Z 14008KT 28/19 A2988 RMK A01 T02820187  RH  056%=      5-min Rain = 0
KTH1 210443Z 14007G13KT 28/19 A2988 RMK A01 T02820187  RH  056%=      5-min Rain = 0
KTH1 210444Z 15007KT 28/19 A2988 RMK A01 T02820188  RH  056%=      5-min Rain = 0
KTH1 210445Z 15008KT 28/19 A2988 RMK A01 T02820188  RH  057%=      5-min Rain = 0
KTH1 210446Z 15008KT 28/19 A2988 RMK A01 T02820188  RH  057%=      5-min Rain = 0
KTH1 210447Z 15007KT 28/19 A2988 RMK A01 T02820188  RH  057%=      5-min Rain = 0
KTH1 210448Z 14008KT 28/19 A2988 RMK A01 T02810188  RH  057%=      5-min Rain = 0
KTH1 210449Z 15009KT 28/19 A2988 RMK A01 T02810188  RH  057%=      5-min Rain = 0
KTH1 210450Z 14007KT 28/19 A2988 RMK A01 T02810188  RH  057%=      5-min Rain = 0
KTH1 210451Z 15007KT 28/19 A2988 RMK A01 T02810188  RH  057%=      5-min Rain = 0
KTH1 210452Z 15008KT 28/19 A2988 RMK A01 T02800188  RH  057%=      5-min Rain = 0
KTH1 210453Z 15008KT 28/19 A2988 RMK A01 T02810188  RH  057%=      5-min Rain = 0
KTH1 210454Z 15007KT 28/19 A2988 RMK A01 T02800188  RH  057%=      5-min Rain = 0
KTH1 210455Z 14008KT 28/19 A2987 RMK A01 T02800188  RH  057%=      5-min Rain = 0
KTH1 210456Z 15008KT 28/19 A2987 RMK A01 T02800188  RH  058%=      5-min Rain = 0
KTH1 210457Z 15007KT 28/19 A2987 RMK A01 T02800189  RH  058%=      5-min Rain = 0
KTH1 210458Z 15009KT 28/19 A2987 RMK A01 T02800189  RH  058%=      5-min Rain = 0
KTH1 210459Z 15009KT 28/19 A2987 RMK A01 T02800189  RH  058%=      5-min Rain = 0

Page generated in 0.0795 seconds.